<?xml version="1.0" encoding="UTF-8" standalone="no" ?>
<gpx xmlns="http://www.topografix.com/GPX/1/1" xmlns:xsi="http://www.w3.org/2001/XMLSchema-instance" xsi:schemaLocation="http://www.topografix.com/GPX/1/1 http://www.topografix.com/GPX/1/1/gpx.xsd" version="1.1" creator="VisuGPX - https://www.visugpx.com">
  <metadata>
    <name>CREST LIVRON PM</name>
    <desc><![CDATA[En longeant la Drôme, un parcours VTT ou rando empruntant le sentier des Castors et des ramiers.]]></desc>
  </metadata>
  <trk>
    <name><![CDATA[CREST LIVRON PM]]></name>
    <trkseg>
      <trkpt lat="44.73035" lon="5.01615">
        <ele>319.78</ele>
        <time>2012-05-05T13:19:20Z</time>
      </trkpt>
      <trkpt lat="44.73035" lon="5.01615">
        <ele>321.7</ele>
        <time>2012-05-05T13:19:46Z</time>
      </trkpt>
      <trkpt lat="44.73038" lon="5.01627">
        <ele>321.7</ele>
        <time>2012-05-05T13:19:51Z</time>
      </trkpt>
      <trkpt lat="44.73034" lon="5.01641">
        <ele>325.06</ele>
        <time>2012-05-05T13:19:56Z</time>
      </trkpt>
      <trkpt lat="44.73033" lon="5.01644">
        <ele>325.06</ele>
        <time>2012-05-05T13:19:57Z</time>
      </trkpt>
      <trkpt lat="44.73035" lon="5.01661">
        <ele>325.06</ele>
        <time>2012-05-05T13:20:02Z</time>
      </trkpt>
      <trkpt lat="44.73034" lon="5.017">
        <ele>324.1</ele>
        <time>2012-05-05T13:20:13Z</time>
      </trkpt>
      <trkpt lat="44.73039" lon="5.01728">
        <ele>323.62</ele>
        <time>2012-05-05T13:20:23Z</time>
      </trkpt>
      <trkpt lat="44.73039" lon="5.01728">
        <ele>320.26</ele>
        <time>2012-05-05T13:20:27Z</time>
      </trkpt>
      <trkpt lat="44.73039" lon="5.01728">
        <ele>315.45</ele>
        <time>2012-05-05T13:20:35Z</time>
      </trkpt>
      <trkpt lat="44.73039" lon="5.01728">
        <ele>319.3</ele>
        <time>2012-05-05T13:20:36Z</time>
      </trkpt>
      <trkpt lat="44.73039" lon="5.01728">
        <ele>323.14</ele>
        <time>2012-05-05T13:20:57Z</time>
      </trkpt>
      <trkpt lat="44.7304" lon="5.0173">
        <ele>319.78</ele>
        <time>2012-05-05T13:21:00Z</time>
      </trkpt>
      <trkpt lat="44.7304" lon="5.0173">
        <ele>319.3</ele>
        <time>2012-05-05T13:21:31Z</time>
      </trkpt>
      <trkpt lat="44.73042" lon="5.01761">
        <ele>319.78</ele>
        <time>2012-05-05T13:21:40Z</time>
      </trkpt>
      <trkpt lat="44.73038" lon="5.01769">
        <ele>322.66</ele>
        <time>2012-05-05T13:21:42Z</time>
      </trkpt>
      <trkpt lat="44.73027" lon="5.0179">
        <ele>324.1</ele>
        <time>2012-05-05T13:21:47Z</time>
      </trkpt>
      <trkpt lat="44.73025" lon="5.01794">
        <ele>324.1</ele>
        <time>2012-05-05T13:21:48Z</time>
      </trkpt>
      <trkpt lat="44.73003" lon="5.01846">
        <ele>325.54</ele>
        <time>2012-05-05T13:22:00Z</time>
      </trkpt>
      <trkpt lat="44.7298" lon="5.01887">
        <ele>325.54</ele>
        <time>2012-05-05T13:22:10Z</time>
      </trkpt>
      <trkpt lat="44.72974" lon="5.01896">
        <ele>325.06</ele>
        <time>2012-05-05T13:22:12Z</time>
      </trkpt>
      <trkpt lat="44.72971" lon="5.01901">
        <ele>325.06</ele>
        <time>2012-05-05T13:22:13Z</time>
      </trkpt>
      <trkpt lat="44.72967" lon="5.01906">
        <ele>325.54</ele>
        <time>2012-05-05T13:22:14Z</time>
      </trkpt>
      <trkpt lat="44.72964" lon="5.01911">
        <ele>325.06</ele>
        <time>2012-05-05T13:22:15Z</time>
      </trkpt>
      <trkpt lat="44.72962" lon="5.01917">
        <ele>325.06</ele>
        <time>2012-05-05T13:22:16Z</time>
      </trkpt>
      <trkpt lat="44.72958" lon="5.01922">
        <ele>325.06</ele>
        <time>2012-05-05T13:22:17Z</time>
      </trkpt>
      <trkpt lat="44.72953" lon="5.01927">
        <ele>324.58</ele>
        <time>2012-05-05T13:22:18Z</time>
      </trkpt>
      <trkpt lat="44.72949" lon="5.01932">
        <ele>324.58</ele>
        <time>2012-05-05T13:22:19Z</time>
      </trkpt>
      <trkpt lat="44.72946" lon="5.01937">
        <ele>324.1</ele>
        <time>2012-05-05T13:22:20Z</time>
      </trkpt>
      <trkpt lat="44.72943" lon="5.01943">
        <ele>324.58</ele>
        <time>2012-05-05T13:22:21Z</time>
      </trkpt>
      <trkpt lat="44.72927" lon="5.01969">
        <ele>324.1</ele>
        <time>2012-05-05T13:22:26Z</time>
      </trkpt>
      <trkpt lat="44.72914" lon="5.01991">
        <ele>325.06</ele>
        <time>2012-05-05T13:22:31Z</time>
      </trkpt>
      <trkpt lat="44.72911" lon="5.01995">
        <ele>324.58</ele>
        <time>2012-05-05T13:22:32Z</time>
      </trkpt>
      <trkpt lat="44.72897" lon="5.02034">
        <ele>326.5</ele>
        <time>2012-05-05T13:22:43Z</time>
      </trkpt>
      <trkpt lat="44.72897" lon="5.02038">
        <ele>326.5</ele>
        <time>2012-05-05T13:22:44Z</time>
      </trkpt>
      <trkpt lat="44.72897" lon="5.0204">
        <ele>326.99</ele>
        <time>2012-05-05T13:22:45Z</time>
      </trkpt>
      <trkpt lat="44.72896" lon="5.02044">
        <ele>326.99</ele>
        <time>2012-05-05T13:22:46Z</time>
      </trkpt>
      <trkpt lat="44.72894" lon="5.02047">
        <ele>326.99</ele>
        <time>2012-05-05T13:22:47Z</time>
      </trkpt>
      <trkpt lat="44.72892" lon="5.02051">
        <ele>326.99</ele>
        <time>2012-05-05T13:22:48Z</time>
      </trkpt>
      <trkpt lat="44.72882" lon="5.02068">
        <ele>327.47</ele>
        <time>2012-05-05T13:22:53Z</time>
      </trkpt>
      <trkpt lat="44.72879" lon="5.02072">
        <ele>327.47</ele>
        <time>2012-05-05T13:22:54Z</time>
      </trkpt>
      <trkpt lat="44.72877" lon="5.02075">
        <ele>327.95</ele>
        <time>2012-05-05T13:22:55Z</time>
      </trkpt>
      <trkpt lat="44.72874" lon="5.02078">
        <ele>327.47</ele>
        <time>2012-05-05T13:22:56Z</time>
      </trkpt>
      <trkpt lat="44.72872" lon="5.02082">
        <ele>327.95</ele>
        <time>2012-05-05T13:22:57Z</time>
      </trkpt>
      <trkpt lat="44.72847" lon="5.02111">
        <ele>329.39</ele>
        <time>2012-05-05T13:23:08Z</time>
      </trkpt>
      <trkpt lat="44.72839" lon="5.02129">
        <ele>329.39</ele>
        <time>2012-05-05T13:23:14Z</time>
      </trkpt>
      <trkpt lat="44.72838" lon="5.02168">
        <ele>329.87</ele>
        <time>2012-05-05T13:23:23Z</time>
      </trkpt>
      <trkpt lat="44.72838" lon="5.02179">
        <ele>329.87</ele>
        <time>2012-05-05T13:23:26Z</time>
      </trkpt>
      <trkpt lat="44.72844" lon="5.02228">
        <ele>330.35</ele>
        <time>2012-05-05T13:23:37Z</time>
      </trkpt>
      <trkpt lat="44.72853" lon="5.02278">
        <ele>329.87</ele>
        <time>2012-05-05T13:23:49Z</time>
      </trkpt>
      <trkpt lat="44.72856" lon="5.02298">
        <ele>329.39</ele>
        <time>2012-05-05T13:23:55Z</time>
      </trkpt>
      <trkpt lat="44.72857" lon="5.02302">
        <ele>328.91</ele>
        <time>2012-05-05T13:23:56Z</time>
      </trkpt>
      <trkpt lat="44.72857" lon="5.02306">
        <ele>329.39</ele>
        <time>2012-05-05T13:23:57Z</time>
      </trkpt>
      <trkpt lat="44.72859" lon="5.02323">
        <ele>328.91</ele>
        <time>2012-05-05T13:24:00Z</time>
      </trkpt>
      <trkpt lat="44.72861" lon="5.0233">
        <ele>328.91</ele>
        <time>2012-05-05T13:24:01Z</time>
      </trkpt>
      <trkpt lat="44.72864" lon="5.02337">
        <ele>328.91</ele>
        <time>2012-05-05T13:24:02Z</time>
      </trkpt>
      <trkpt lat="44.72866" lon="5.02344">
        <ele>328.43</ele>
        <time>2012-05-05T13:24:03Z</time>
      </trkpt>
      <trkpt lat="44.72867" lon="5.0235">
        <ele>328.43</ele>
        <time>2012-05-05T13:24:04Z</time>
      </trkpt>
      <trkpt lat="44.72869" lon="5.02356">
        <ele>328.43</ele>
        <time>2012-05-05T13:24:05Z</time>
      </trkpt>
      <trkpt lat="44.72872" lon="5.02369">
        <ele>328.43</ele>
        <time>2012-05-05T13:24:07Z</time>
      </trkpt>
      <trkpt lat="44.72878" lon="5.02394">
        <ele>327.95</ele>
        <time>2012-05-05T13:24:15Z</time>
      </trkpt>
      <trkpt lat="44.72876" lon="5.02405">
        <ele>327.47</ele>
        <time>2012-05-05T13:24:25Z</time>
      </trkpt>
      <trkpt lat="44.72876" lon="5.02416">
        <ele>326.99</ele>
        <time>2012-05-05T13:24:29Z</time>
      </trkpt>
      <trkpt lat="44.72883" lon="5.02446">
        <ele>328.43</ele>
        <time>2012-05-05T13:24:37Z</time>
      </trkpt>
      <trkpt lat="44.72889" lon="5.02484">
        <ele>329.39</ele>
        <time>2012-05-05T13:24:45Z</time>
      </trkpt>
      <trkpt lat="44.72898" lon="5.025">
        <ele>329.87</ele>
        <time>2012-05-05T13:24:49Z</time>
      </trkpt>
      <trkpt lat="44.72899" lon="5.02509">
        <ele>328.91</ele>
        <time>2012-05-05T13:24:51Z</time>
      </trkpt>
      <trkpt lat="44.72895" lon="5.02527">
        <ele>329.39</ele>
        <time>2012-05-05T13:24:56Z</time>
      </trkpt>
      <trkpt lat="44.72895" lon="5.02544">
        <ele>329.39</ele>
        <time>2012-05-05T13:24:59Z</time>
      </trkpt>
      <trkpt lat="44.72896" lon="5.0255">
        <ele>329.39</ele>
        <time>2012-05-05T13:25:00Z</time>
      </trkpt>
      <trkpt lat="44.72896" lon="5.02587">
        <ele>329.87</ele>
        <time>2012-05-05T13:25:07Z</time>
      </trkpt>
      <trkpt lat="44.72895" lon="5.02591">
        <ele>329.39</ele>
        <time>2012-05-05T13:25:08Z</time>
      </trkpt>
      <trkpt lat="44.72895" lon="5.02595">
        <ele>329.39</ele>
        <time>2012-05-05T13:25:09Z</time>
      </trkpt>
      <trkpt lat="44.72894" lon="5.02662">
        <ele>329.87</ele>
        <time>2012-05-05T13:25:21Z</time>
      </trkpt>
      <trkpt lat="44.72907" lon="5.0267">
        <ele>331.31</ele>
        <time>2012-05-05T13:25:27Z</time>
      </trkpt>
      <trkpt lat="44.72918" lon="5.02674">
        <ele>332.75</ele>
        <time>2012-05-05T13:25:32Z</time>
      </trkpt>
      <trkpt lat="44.7292" lon="5.02675">
        <ele>333.23</ele>
        <time>2012-05-05T13:25:33Z</time>
      </trkpt>
      <trkpt lat="44.72922" lon="5.0268">
        <ele>334.2</ele>
        <time>2012-05-05T13:25:37Z</time>
      </trkpt>
      <trkpt lat="44.7294" lon="5.02682">
        <ele>336.6</ele>
        <time>2012-05-05T13:25:48Z</time>
      </trkpt>
      <trkpt lat="44.7295" lon="5.02678">
        <ele>339.48</ele>
        <time>2012-05-05T13:25:58Z</time>
      </trkpt>
      <trkpt lat="44.72968" lon="5.02672">
        <ele>342.37</ele>
        <time>2012-05-05T13:26:09Z</time>
      </trkpt>
      <trkpt lat="44.72971" lon="5.02669">
        <ele>343.33</ele>
        <time>2012-05-05T13:26:11Z</time>
      </trkpt>
      <trkpt lat="44.72974" lon="5.02661">
        <ele>343.81</ele>
        <time>2012-05-05T13:26:18Z</time>
      </trkpt>
      <trkpt lat="44.72975" lon="5.02644">
        <ele>344.77</ele>
        <time>2012-05-05T13:26:27Z</time>
      </trkpt>
      <trkpt lat="44.72977" lon="5.02636">
        <ele>344.29</ele>
        <time>2012-05-05T13:26:32Z</time>
      </trkpt>
      <trkpt lat="44.72973" lon="5.02608">
        <ele>344.77</ele>
        <time>2012-05-05T13:26:44Z</time>
      </trkpt>
      <trkpt lat="44.72965" lon="5.02598">
        <ele>343.81</ele>
        <time>2012-05-05T13:26:48Z</time>
      </trkpt>
      <trkpt lat="44.7295" lon="5.02577">
        <ele>340.92</ele>
        <time>2012-05-05T13:26:58Z</time>
      </trkpt>
      <trkpt lat="44.72946" lon="5.02562">
        <ele>339</ele>
        <time>2012-05-05T13:27:02Z</time>
      </trkpt>
      <trkpt lat="44.72947" lon="5.02546">
        <ele>340.92</ele>
        <time>2012-05-05T13:27:06Z</time>
      </trkpt>
      <trkpt lat="44.72949" lon="5.02532">
        <ele>341.41</ele>
        <time>2012-05-05T13:27:10Z</time>
      </trkpt>
      <trkpt lat="44.7295" lon="5.02525">
        <ele>341.89</ele>
        <time>2012-05-05T13:27:13Z</time>
      </trkpt>
      <trkpt lat="44.72949" lon="5.02515">
        <ele>344.29</ele>
        <time>2012-05-05T13:27:19Z</time>
      </trkpt>
      <trkpt lat="44.72949" lon="5.02506">
        <ele>345.25</ele>
        <time>2012-05-05T13:27:23Z</time>
      </trkpt>
      <trkpt lat="44.72947" lon="5.02488">
        <ele>347.17</ele>
        <time>2012-05-05T13:27:34Z</time>
      </trkpt>
      <trkpt lat="44.72936" lon="5.0246">
        <ele>344.29</ele>
        <time>2012-05-05T13:27:42Z</time>
      </trkpt>
      <trkpt lat="44.72931" lon="5.02443">
        <ele>342.37</ele>
        <time>2012-05-05T13:27:49Z</time>
      </trkpt>
      <trkpt lat="44.72925" lon="5.02438">
        <ele>340.44</ele>
        <time>2012-05-05T13:27:52Z</time>
      </trkpt>
      <trkpt lat="44.72919" lon="5.02433">
        <ele>339</ele>
        <time>2012-05-05T13:27:55Z</time>
      </trkpt>
      <trkpt lat="44.72913" lon="5.02426">
        <ele>337.08</ele>
        <time>2012-05-05T13:28:04Z</time>
      </trkpt>
      <trkpt lat="44.7291" lon="5.02397">
        <ele>337.08</ele>
        <time>2012-05-05T13:28:13Z</time>
      </trkpt>
      <trkpt lat="44.729" lon="5.02379">
        <ele>335.64</ele>
        <time>2012-05-05T13:28:18Z</time>
      </trkpt>
      <trkpt lat="44.72892" lon="5.0237">
        <ele>335.16</ele>
        <time>2012-05-05T13:28:20Z</time>
      </trkpt>
      <trkpt lat="44.72887" lon="5.02358">
        <ele>334.2</ele>
        <time>2012-05-05T13:28:23Z</time>
      </trkpt>
      <trkpt lat="44.72882" lon="5.0235">
        <ele>333.23</ele>
        <time>2012-05-05T13:28:27Z</time>
      </trkpt>
      <trkpt lat="44.7287" lon="5.02332">
        <ele>332.27</ele>
        <time>2012-05-05T13:28:32Z</time>
      </trkpt>
      <trkpt lat="44.72864" lon="5.02307">
        <ele>331.31</ele>
        <time>2012-05-05T13:28:36Z</time>
      </trkpt>
      <trkpt lat="44.72864" lon="5.02301">
        <ele>331.79</ele>
        <time>2012-05-05T13:28:37Z</time>
      </trkpt>
      <trkpt lat="44.72864" lon="5.02295">
        <ele>331.79</ele>
        <time>2012-05-05T13:28:38Z</time>
      </trkpt>
      <trkpt lat="44.72864" lon="5.02292">
        <ele>331.79</ele>
        <time>2012-05-05T13:28:39Z</time>
      </trkpt>
      <trkpt lat="44.72864" lon="5.02288">
        <ele>331.31</ele>
        <time>2012-05-05T13:28:40Z</time>
      </trkpt>
      <trkpt lat="44.72864" lon="5.02285">
        <ele>331.79</ele>
        <time>2012-05-05T13:28:41Z</time>
      </trkpt>
      <trkpt lat="44.72863" lon="5.02283">
        <ele>331.31</ele>
        <time>2012-05-05T13:28:42Z</time>
      </trkpt>
      <trkpt lat="44.72863" lon="5.02279">
        <ele>331.31</ele>
        <time>2012-05-05T13:28:43Z</time>
      </trkpt>
      <trkpt lat="44.72858" lon="5.02272">
        <ele>330.83</ele>
        <time>2012-05-05T13:28:48Z</time>
      </trkpt>
      <trkpt lat="44.72858" lon="5.02254">
        <ele>330.83</ele>
        <time>2012-05-05T13:28:52Z</time>
      </trkpt>
      <trkpt lat="44.72867" lon="5.02214">
        <ele>330.83</ele>
        <time>2012-05-05T13:29:02Z</time>
      </trkpt>
      <trkpt lat="44.72865" lon="5.02207">
        <ele>330.35</ele>
        <time>2012-05-05T13:29:05Z</time>
      </trkpt>
      <trkpt lat="44.72827" lon="5.02194">
        <ele>327.47</ele>
        <time>2012-05-05T13:29:15Z</time>
      </trkpt>
      <trkpt lat="44.72814" lon="5.02188">
        <ele>326.99</ele>
        <time>2012-05-05T13:29:18Z</time>
      </trkpt>
      <trkpt lat="44.72781" lon="5.0217">
        <ele>327.95</ele>
        <time>2012-05-05T13:29:27Z</time>
      </trkpt>
      <trkpt lat="44.72769" lon="5.0216">
        <ele>328.43</ele>
        <time>2012-05-05T13:29:31Z</time>
      </trkpt>
      <trkpt lat="44.72766" lon="5.02133">
        <ele>327.95</ele>
        <time>2012-05-05T13:29:42Z</time>
      </trkpt>
      <trkpt lat="44.72765" lon="5.02125">
        <ele>327.47</ele>
        <time>2012-05-05T13:29:50Z</time>
      </trkpt>
      <trkpt lat="44.72766" lon="5.02122">
        <ele>327.95</ele>
        <time>2012-05-05T13:30:28Z</time>
      </trkpt>
      <trkpt lat="44.72762" lon="5.02108">
        <ele>327.47</ele>
        <time>2012-05-05T13:30:35Z</time>
      </trkpt>
      <trkpt lat="44.72763" lon="5.02102">
        <ele>327.47</ele>
        <time>2012-05-05T13:30:47Z</time>
      </trkpt>
      <trkpt lat="44.72763" lon="5.02086">
        <ele>327.47</ele>
        <time>2012-05-05T13:31:01Z</time>
      </trkpt>
      <trkpt lat="44.72767" lon="5.02073">
        <ele>327.47</ele>
        <time>2012-05-05T13:31:12Z</time>
      </trkpt>
      <trkpt lat="44.72767" lon="5.02073">
        <ele>327.47</ele>
        <time>2012-05-05T13:31:27Z</time>
      </trkpt>
      <trkpt lat="44.72768" lon="5.02059">
        <ele>326.5</ele>
        <time>2012-05-05T13:31:32Z</time>
      </trkpt>
      <trkpt lat="44.72774" lon="5.0204">
        <ele>326.02</ele>
        <time>2012-05-05T13:31:36Z</time>
      </trkpt>
      <trkpt lat="44.72779" lon="5.02011">
        <ele>326.02</ele>
        <time>2012-05-05T13:31:41Z</time>
      </trkpt>
      <trkpt lat="44.72789" lon="5.01956">
        <ele>325.06</ele>
        <time>2012-05-05T13:31:50Z</time>
      </trkpt>
      <trkpt lat="44.72791" lon="5.01938">
        <ele>325.54</ele>
        <time>2012-05-05T13:31:53Z</time>
      </trkpt>
      <trkpt lat="44.72797" lon="5.01914">
        <ele>325.54</ele>
        <time>2012-05-05T13:31:57Z</time>
      </trkpt>
      <trkpt lat="44.72807" lon="5.01859">
        <ele>326.5</ele>
        <time>2012-05-05T13:32:08Z</time>
      </trkpt>
      <trkpt lat="44.72812" lon="5.01848">
        <ele>326.5</ele>
        <time>2012-05-05T13:32:12Z</time>
      </trkpt>
      <trkpt lat="44.72822" lon="5.01787">
        <ele>327.47</ele>
        <time>2012-05-05T13:32:24Z</time>
      </trkpt>
      <trkpt lat="44.72828" lon="5.01738">
        <ele>327.47</ele>
        <time>2012-05-05T13:32:34Z</time>
      </trkpt>
      <trkpt lat="44.72834" lon="5.01698">
        <ele>326.5</ele>
        <time>2012-05-05T13:32:40Z</time>
      </trkpt>
      <trkpt lat="44.72842" lon="5.01606">
        <ele>325.54</ele>
        <time>2012-05-05T13:32:52Z</time>
      </trkpt>
      <trkpt lat="44.72847" lon="5.01564">
        <ele>325.06</ele>
        <time>2012-05-05T13:32:58Z</time>
      </trkpt>
      <trkpt lat="44.72848" lon="5.01544">
        <ele>325.06</ele>
        <time>2012-05-05T13:33:01Z</time>
      </trkpt>
      <trkpt lat="44.72853" lon="5.01504">
        <ele>325.54</ele>
        <time>2012-05-05T13:33:07Z</time>
      </trkpt>
      <trkpt lat="44.7286" lon="5.0147">
        <ele>325.54</ele>
        <time>2012-05-05T13:33:12Z</time>
      </trkpt>
      <trkpt lat="44.72864" lon="5.01441">
        <ele>325.06</ele>
        <time>2012-05-05T13:33:16Z</time>
      </trkpt>
      <trkpt lat="44.7287" lon="5.01413">
        <ele>324.58</ele>
        <time>2012-05-05T13:33:20Z</time>
      </trkpt>
      <trkpt lat="44.72871" lon="5.01399">
        <ele>325.06</ele>
        <time>2012-05-05T13:33:22Z</time>
      </trkpt>
      <trkpt lat="44.7288" lon="5.01345">
        <ele>325.06</ele>
        <time>2012-05-05T13:33:30Z</time>
      </trkpt>
      <trkpt lat="44.72885" lon="5.01319">
        <ele>325.06</ele>
        <time>2012-05-05T13:33:34Z</time>
      </trkpt>
      <trkpt lat="44.72891" lon="5.013">
        <ele>324.58</ele>
        <time>2012-05-05T13:33:37Z</time>
      </trkpt>
      <trkpt lat="44.72889" lon="5.0124">
        <ele>324.1</ele>
        <time>2012-05-05T13:33:47Z</time>
      </trkpt>
      <trkpt lat="44.7289" lon="5.01228">
        <ele>324.1</ele>
        <time>2012-05-05T13:33:49Z</time>
      </trkpt>
      <trkpt lat="44.72894" lon="5.01217">
        <ele>324.58</ele>
        <time>2012-05-05T13:33:51Z</time>
      </trkpt>
      <trkpt lat="44.72896" lon="5.01192">
        <ele>324.1</ele>
        <time>2012-05-05T13:33:55Z</time>
      </trkpt>
      <trkpt lat="44.72898" lon="5.01166">
        <ele>324.1</ele>
        <time>2012-05-05T13:33:59Z</time>
      </trkpt>
      <trkpt lat="44.72897" lon="5.01148">
        <ele>324.1</ele>
        <time>2012-05-05T13:34:04Z</time>
      </trkpt>
      <trkpt lat="44.72903" lon="5.01109">
        <ele>323.62</ele>
        <time>2012-05-05T13:34:11Z</time>
      </trkpt>
      <trkpt lat="44.72914" lon="5.0103">
        <ele>323.14</ele>
        <time>2012-05-05T13:34:23Z</time>
      </trkpt>
      <trkpt lat="44.72915" lon="5.01023">
        <ele>322.66</ele>
        <time>2012-05-05T13:34:24Z</time>
      </trkpt>
      <trkpt lat="44.7292" lon="5.00988">
        <ele>322.66</ele>
        <time>2012-05-05T13:34:29Z</time>
      </trkpt>
      <trkpt lat="44.72924" lon="5.0096">
        <ele>323.14</ele>
        <time>2012-05-05T13:34:33Z</time>
      </trkpt>
      <trkpt lat="44.72934" lon="5.00881">
        <ele>323.14</ele>
        <time>2012-05-05T13:34:44Z</time>
      </trkpt>
      <trkpt lat="44.72934" lon="5.00874">
        <ele>322.66</ele>
        <time>2012-05-05T13:34:45Z</time>
      </trkpt>
      <trkpt lat="44.72947" lon="5.00806">
        <ele>322.66</ele>
        <time>2012-05-05T13:34:55Z</time>
      </trkpt>
      <trkpt lat="44.72949" lon="5.00793">
        <ele>323.14</ele>
        <time>2012-05-05T13:34:57Z</time>
      </trkpt>
      <trkpt lat="44.72949" lon="5.00786">
        <ele>322.66</ele>
        <time>2012-05-05T13:34:58Z</time>
      </trkpt>
      <trkpt lat="44.72949" lon="5.00779">
        <ele>322.66</ele>
        <time>2012-05-05T13:34:59Z</time>
      </trkpt>
      <trkpt lat="44.72949" lon="5.00772">
        <ele>322.66</ele>
        <time>2012-05-05T13:35:00Z</time>
      </trkpt>
      <trkpt lat="44.72956" lon="5.00735">
        <ele>322.18</ele>
        <time>2012-05-05T13:35:08Z</time>
      </trkpt>
      <trkpt lat="44.72966" lon="5.00684">
        <ele>322.18</ele>
        <time>2012-05-05T13:35:20Z</time>
      </trkpt>
      <trkpt lat="44.72968" lon="5.00644">
        <ele>321.7</ele>
        <time>2012-05-05T13:35:28Z</time>
      </trkpt>
      <trkpt lat="44.72974" lon="5.00596">
        <ele>321.7</ele>
        <time>2012-05-05T13:35:39Z</time>
      </trkpt>
      <trkpt lat="44.72986" lon="5.0054">
        <ele>321.22</ele>
        <time>2012-05-05T13:35:50Z</time>
      </trkpt>
      <trkpt lat="44.72993" lon="5.00512">
        <ele>321.22</ele>
        <time>2012-05-05T13:35:55Z</time>
      </trkpt>
      <trkpt lat="44.73004" lon="5.00465">
        <ele>321.7</ele>
        <time>2012-05-05T13:36:04Z</time>
      </trkpt>
      <trkpt lat="44.7301" lon="5.00449">
        <ele>321.7</ele>
        <time>2012-05-05T13:36:07Z</time>
      </trkpt>
      <trkpt lat="44.73014" lon="5.00425">
        <ele>321.22</ele>
        <time>2012-05-05T13:36:11Z</time>
      </trkpt>
      <trkpt lat="44.73017" lon="5.00378">
        <ele>321.22</ele>
        <time>2012-05-05T13:36:19Z</time>
      </trkpt>
      <trkpt lat="44.7302" lon="5.00345">
        <ele>321.22</ele>
        <time>2012-05-05T13:36:24Z</time>
      </trkpt>
      <trkpt lat="44.73026" lon="5.00307">
        <ele>320.74</ele>
        <time>2012-05-05T13:36:30Z</time>
      </trkpt>
      <trkpt lat="44.73032" lon="5.00251">
        <ele>320.74</ele>
        <time>2012-05-05T13:36:39Z</time>
      </trkpt>
      <trkpt lat="44.73033" lon="5.00224">
        <ele>319.78</ele>
        <time>2012-05-05T13:36:43Z</time>
      </trkpt>
      <trkpt lat="44.73039" lon="5.00194">
        <ele>320.26</ele>
        <time>2012-05-05T13:36:48Z</time>
      </trkpt>
      <trkpt lat="44.73047" lon="5.00162">
        <ele>320.26</ele>
        <time>2012-05-05T13:36:54Z</time>
      </trkpt>
      <trkpt lat="44.73053" lon="5.0012">
        <ele>320.26</ele>
        <time>2012-05-05T13:37:01Z</time>
      </trkpt>
      <trkpt lat="44.73056" lon="5.00096">
        <ele>319.78</ele>
        <time>2012-05-05T13:37:05Z</time>
      </trkpt>
      <trkpt lat="44.73066" lon="5.00027">
        <ele>319.78</ele>
        <time>2012-05-05T13:37:17Z</time>
      </trkpt>
      <trkpt lat="44.73067" lon="5.00014">
        <ele>319.3</ele>
        <time>2012-05-05T13:37:19Z</time>
      </trkpt>
      <trkpt lat="44.73074" lon="4.99951">
        <ele>319.78</ele>
        <time>2012-05-05T13:37:30Z</time>
      </trkpt>
      <trkpt lat="44.73075" lon="4.99945">
        <ele>319.78</ele>
        <time>2012-05-05T13:37:31Z</time>
      </trkpt>
      <trkpt lat="44.7308" lon="4.99905">
        <ele>319.3</ele>
        <time>2012-05-05T13:37:38Z</time>
      </trkpt>
      <trkpt lat="44.73089" lon="4.99835">
        <ele>318.33</ele>
        <time>2012-05-05T13:37:51Z</time>
      </trkpt>
      <trkpt lat="44.73097" lon="4.99791">
        <ele>319.3</ele>
        <time>2012-05-05T13:38:01Z</time>
      </trkpt>
      <trkpt lat="44.731" lon="4.99755">
        <ele>319.3</ele>
        <time>2012-05-05T13:38:10Z</time>
      </trkpt>
      <trkpt lat="44.73103" lon="4.99741">
        <ele>318.81</ele>
        <time>2012-05-05T13:38:14Z</time>
      </trkpt>
      <trkpt lat="44.73109" lon="4.99678">
        <ele>318.81</ele>
        <time>2012-05-05T13:38:26Z</time>
      </trkpt>
      <trkpt lat="44.73114" lon="4.99633">
        <ele>318.81</ele>
        <time>2012-05-05T13:38:35Z</time>
      </trkpt>
      <trkpt lat="44.73118" lon="4.99591">
        <ele>318.33</ele>
        <time>2012-05-05T13:38:46Z</time>
      </trkpt>
      <trkpt lat="44.73119" lon="4.99591">
        <ele>316.89</ele>
        <time>2012-05-05T13:39:57Z</time>
      </trkpt>
      <trkpt lat="44.7312" lon="4.99578">
        <ele>318.33</ele>
        <time>2012-05-05T13:40:45Z</time>
      </trkpt>
      <trkpt lat="44.73123" lon="4.99533">
        <ele>317.85</ele>
        <time>2012-05-05T13:40:56Z</time>
      </trkpt>
      <trkpt lat="44.73127" lon="4.99487">
        <ele>317.85</ele>
        <time>2012-05-05T13:41:07Z</time>
      </trkpt>
      <trkpt lat="44.73133" lon="4.99434">
        <ele>317.37</ele>
        <time>2012-05-05T13:41:19Z</time>
      </trkpt>
      <trkpt lat="44.73133" lon="4.99432">
        <ele>314.49</ele>
        <time>2012-05-05T13:41:27Z</time>
      </trkpt>
      <trkpt lat="44.73137" lon="4.99405">
        <ele>313.53</ele>
        <time>2012-05-05T13:41:41Z</time>
      </trkpt>
      <trkpt lat="44.73138" lon="4.994">
        <ele>317.37</ele>
        <time>2012-05-05T13:41:42Z</time>
      </trkpt>
      <trkpt lat="44.73138" lon="4.99395">
        <ele>317.37</ele>
        <time>2012-05-05T13:41:43Z</time>
      </trkpt>
      <trkpt lat="44.73145" lon="4.99326">
        <ele>316.41</ele>
        <time>2012-05-05T13:41:56Z</time>
      </trkpt>
      <trkpt lat="44.73153" lon="4.99265">
        <ele>316.41</ele>
        <time>2012-05-05T13:42:07Z</time>
      </trkpt>
      <trkpt lat="44.7316" lon="4.99204">
        <ele>316.41</ele>
        <time>2012-05-05T13:42:19Z</time>
      </trkpt>
      <trkpt lat="44.73161" lon="4.99203">
        <ele>316.41</ele>
        <time>2012-05-05T13:42:54Z</time>
      </trkpt>
      <trkpt lat="44.73164" lon="4.99189">
        <ele>316.41</ele>
        <time>2012-05-05T13:43:26Z</time>
      </trkpt>
      <trkpt lat="44.73166" lon="4.99163">
        <ele>316.41</ele>
        <time>2012-05-05T13:43:34Z</time>
      </trkpt>
      <trkpt lat="44.73169" lon="4.99105">
        <ele>316.89</ele>
        <time>2012-05-05T13:43:47Z</time>
      </trkpt>
      <trkpt lat="44.73174" lon="4.9904">
        <ele>316.41</ele>
        <time>2012-05-05T13:43:59Z</time>
      </trkpt>
      <trkpt lat="44.73181" lon="4.98979">
        <ele>316.41</ele>
        <time>2012-05-05T13:44:10Z</time>
      </trkpt>
      <trkpt lat="44.73183" lon="4.98951">
        <ele>316.41</ele>
        <time>2012-05-05T13:44:15Z</time>
      </trkpt>
      <trkpt lat="44.7319" lon="4.98861">
        <ele>315.45</ele>
        <time>2012-05-05T13:44:30Z</time>
      </trkpt>
      <trkpt lat="44.73193" lon="4.98829">
        <ele>315.45</ele>
        <time>2012-05-05T13:44:35Z</time>
      </trkpt>
      <trkpt lat="44.73207" lon="4.98743">
        <ele>313.05</ele>
        <time>2012-05-05T13:44:48Z</time>
      </trkpt>
      <trkpt lat="44.73208" lon="4.98738">
        <ele>313.05</ele>
        <time>2012-05-05T13:44:49Z</time>
      </trkpt>
      <trkpt lat="44.73219" lon="4.98682">
        <ele>314.01</ele>
        <time>2012-05-05T13:45:02Z</time>
      </trkpt>
      <trkpt lat="44.73219" lon="4.98678">
        <ele>313.53</ele>
        <time>2012-05-05T13:45:03Z</time>
      </trkpt>
      <trkpt lat="44.73212" lon="4.98661">
        <ele>313.53</ele>
        <time>2012-05-05T13:45:17Z</time>
      </trkpt>
      <trkpt lat="44.73212" lon="4.98661">
        <ele>314.01</ele>
        <time>2012-05-05T13:45:23Z</time>
      </trkpt>
      <trkpt lat="44.7322" lon="4.98664">
        <ele>313.53</ele>
        <time>2012-05-05T13:45:29Z</time>
      </trkpt>
      <trkpt lat="44.73227" lon="4.98648">
        <ele>314.49</ele>
        <time>2012-05-05T13:45:35Z</time>
      </trkpt>
      <trkpt lat="44.73231" lon="4.98596">
        <ele>314.49</ele>
        <time>2012-05-05T13:45:48Z</time>
      </trkpt>
      <trkpt lat="44.7324" lon="4.98526">
        <ele>314.49</ele>
        <time>2012-05-05T13:46:02Z</time>
      </trkpt>
      <trkpt lat="44.73247" lon="4.98461">
        <ele>314.49</ele>
        <time>2012-05-05T13:46:14Z</time>
      </trkpt>
      <trkpt lat="44.73257" lon="4.98387">
        <ele>313.53</ele>
        <time>2012-05-05T13:46:28Z</time>
      </trkpt>
      <trkpt lat="44.7326" lon="4.98354">
        <ele>313.53</ele>
        <time>2012-05-05T13:46:35Z</time>
      </trkpt>
      <trkpt lat="44.73265" lon="4.98338">
        <ele>313.05</ele>
        <time>2012-05-05T13:46:39Z</time>
      </trkpt>
      <trkpt lat="44.73267" lon="4.98331">
        <ele>313.05</ele>
        <time>2012-05-05T13:46:41Z</time>
      </trkpt>
      <trkpt lat="44.73268" lon="4.98324">
        <ele>310.64</ele>
        <time>2012-05-05T13:46:59Z</time>
      </trkpt>
      <trkpt lat="44.73268" lon="4.98324">
        <ele>314.97</ele>
        <time>2012-05-05T13:47:00Z</time>
      </trkpt>
      <trkpt lat="44.73268" lon="4.98324">
        <ele>313.53</ele>
        <time>2012-05-05T13:47:01Z</time>
      </trkpt>
      <trkpt lat="44.73268" lon="4.98323">
        <ele>315.45</ele>
        <time>2012-05-05T13:47:07Z</time>
      </trkpt>
      <trkpt lat="44.73268" lon="4.98323">
        <ele>309.68</ele>
        <time>2012-05-05T13:47:09Z</time>
      </trkpt>
      <trkpt lat="44.73267" lon="4.98323">
        <ele>311.6</ele>
        <time>2012-05-05T13:47:14Z</time>
      </trkpt>
      <trkpt lat="44.73267" lon="4.98323">
        <ele>309.68</ele>
        <time>2012-05-05T13:47:16Z</time>
      </trkpt>
      <trkpt lat="44.73267" lon="4.98323">
        <ele>313.53</ele>
        <time>2012-05-05T13:47:24Z</time>
      </trkpt>
      <trkpt lat="44.73267" lon="4.98323">
        <ele>314.97</ele>
        <time>2012-05-05T13:47:26Z</time>
      </trkpt>
      <trkpt lat="44.73267" lon="4.98323">
        <ele>310.16</ele>
        <time>2012-05-05T13:47:34Z</time>
      </trkpt>
      <trkpt lat="44.73267" lon="4.98322">
        <ele>313.05</ele>
        <time>2012-05-05T13:47:50Z</time>
      </trkpt>
      <trkpt lat="44.73269" lon="4.9832">
        <ele>312.57</ele>
        <time>2012-05-05T13:48:15Z</time>
      </trkpt>
      <trkpt lat="44.73268" lon="4.98318">
        <ele>313.05</ele>
        <time>2012-05-05T13:48:16Z</time>
      </trkpt>
      <trkpt lat="44.73269" lon="4.98316">
        <ele>313.05</ele>
        <time>2012-05-05T13:48:20Z</time>
      </trkpt>
      <trkpt lat="44.73269" lon="4.9832">
        <ele>313.53</ele>
        <time>2012-05-05T13:48:29Z</time>
      </trkpt>
      <trkpt lat="44.7327" lon="4.9832">
        <ele>312.57</ele>
        <time>2012-05-05T13:48:31Z</time>
      </trkpt>
      <trkpt lat="44.73271" lon="4.98318">
        <ele>314.49</ele>
        <time>2012-05-05T13:48:33Z</time>
      </trkpt>
      <trkpt lat="44.73264" lon="4.98312">
        <ele>311.12</ele>
        <time>2012-05-05T13:48:40Z</time>
      </trkpt>
      <trkpt lat="44.73263" lon="4.98313">
        <ele>313.05</ele>
        <time>2012-05-05T13:48:43Z</time>
      </trkpt>
      <trkpt lat="44.73261" lon="4.98312">
        <ele>309.68</ele>
        <time>2012-05-05T13:48:50Z</time>
      </trkpt>
      <trkpt lat="44.7326" lon="4.98311">
        <ele>311.12</ele>
        <time>2012-05-05T13:48:51Z</time>
      </trkpt>
      <trkpt lat="44.73259" lon="4.9831">
        <ele>312.57</ele>
        <time>2012-05-05T13:48:53Z</time>
      </trkpt>
      <trkpt lat="44.73259" lon="4.98311">
        <ele>305.84</ele>
        <time>2012-05-05T13:49:02Z</time>
      </trkpt>
      <trkpt lat="44.73259" lon="4.98311">
        <ele>312.57</ele>
        <time>2012-05-05T13:49:03Z</time>
      </trkpt>
      <trkpt lat="44.73264" lon="4.98315">
        <ele>312.57</ele>
        <time>2012-05-05T13:50:01Z</time>
      </trkpt>
      <trkpt lat="44.73266" lon="4.98321">
        <ele>314.01</ele>
        <time>2012-05-05T13:50:56Z</time>
      </trkpt>
      <trkpt lat="44.73266" lon="4.98321">
        <ele>313.05</ele>
        <time>2012-05-05T13:50:58Z</time>
      </trkpt>
      <trkpt lat="44.73266" lon="4.98316">
        <ele>309.68</ele>
        <time>2012-05-05T13:51:11Z</time>
      </trkpt>
      <trkpt lat="44.73266" lon="4.98316">
        <ele>309.68</ele>
        <time>2012-05-05T13:51:12Z</time>
      </trkpt>
      <trkpt lat="44.73267" lon="4.98314">
        <ele>313.05</ele>
        <time>2012-05-05T13:51:31Z</time>
      </trkpt>
      <trkpt lat="44.73265" lon="4.98307">
        <ele>313.53</ele>
        <time>2012-05-05T13:51:46Z</time>
      </trkpt>
      <trkpt lat="44.73265" lon="4.98302">
        <ele>314.01</ele>
        <time>2012-05-05T13:52:02Z</time>
      </trkpt>
      <trkpt lat="44.73264" lon="4.983">
        <ele>315.93</ele>
        <time>2012-05-05T13:52:24Z</time>
      </trkpt>
      <trkpt lat="44.73264" lon="4.983">
        <ele>314.49</ele>
        <time>2012-05-05T13:52:25Z</time>
      </trkpt>
      <trkpt lat="44.73267" lon="4.98293">
        <ele>314.49</ele>
        <time>2012-05-05T13:52:29Z</time>
      </trkpt>
      <trkpt lat="44.73276" lon="4.98256">
        <ele>314.01</ele>
        <time>2012-05-05T13:52:41Z</time>
      </trkpt>
      <trkpt lat="44.7328" lon="4.98206">
        <ele>314.01</ele>
        <time>2012-05-05T13:52:52Z</time>
      </trkpt>
      <trkpt lat="44.73287" lon="4.98157">
        <ele>313.53</ele>
        <time>2012-05-05T13:53:03Z</time>
      </trkpt>
      <trkpt lat="44.73292" lon="4.9812">
        <ele>314.97</ele>
        <time>2012-05-05T13:53:15Z</time>
      </trkpt>
      <trkpt lat="44.73296" lon="4.98113">
        <ele>314.97</ele>
        <time>2012-05-05T13:53:19Z</time>
      </trkpt>
      <trkpt lat="44.73302" lon="4.98116">
        <ele>315.45</ele>
        <time>2012-05-05T13:53:24Z</time>
      </trkpt>
      <trkpt lat="44.73299" lon="4.98104">
        <ele>315.45</ele>
        <time>2012-05-05T13:53:33Z</time>
      </trkpt>
      <trkpt lat="44.73298" lon="4.98094">
        <ele>314.97</ele>
        <time>2012-05-05T13:53:36Z</time>
      </trkpt>
      <trkpt lat="44.73301" lon="4.98061">
        <ele>311.12</ele>
        <time>2012-05-05T13:53:42Z</time>
      </trkpt>
      <trkpt lat="44.73302" lon="4.98047">
        <ele>309.68</ele>
        <time>2012-05-05T13:53:44Z</time>
      </trkpt>
      <trkpt lat="44.73314" lon="4.97958">
        <ele>309.2</ele>
        <time>2012-05-05T13:53:59Z</time>
      </trkpt>
      <trkpt lat="44.73317" lon="4.97936">
        <ele>312.57</ele>
        <time>2012-05-05T13:54:03Z</time>
      </trkpt>
      <trkpt lat="44.73318" lon="4.9793">
        <ele>312.57</ele>
        <time>2012-05-05T13:54:04Z</time>
      </trkpt>
      <trkpt lat="44.73334" lon="4.97852">
        <ele>312.57</ele>
        <time>2012-05-05T13:54:18Z</time>
      </trkpt>
      <trkpt lat="44.73339" lon="4.97829">
        <ele>312.57</ele>
        <time>2012-05-05T13:54:22Z</time>
      </trkpt>
      <trkpt lat="44.73343" lon="4.97804">
        <ele>312.57</ele>
        <time>2012-05-05T13:54:26Z</time>
      </trkpt>
      <trkpt lat="44.73348" lon="4.97779">
        <ele>312.57</ele>
        <time>2012-05-05T13:54:30Z</time>
      </trkpt>
      <trkpt lat="44.73352" lon="4.97768">
        <ele>312.57</ele>
        <time>2012-05-05T13:54:32Z</time>
      </trkpt>
      <trkpt lat="44.73356" lon="4.97739">
        <ele>312.57</ele>
        <time>2012-05-05T13:54:37Z</time>
      </trkpt>
      <trkpt lat="44.73361" lon="4.97716">
        <ele>312.09</ele>
        <time>2012-05-05T13:54:41Z</time>
      </trkpt>
      <trkpt lat="44.73361" lon="4.9768">
        <ele>311.12</ele>
        <time>2012-05-05T13:54:50Z</time>
      </trkpt>
      <trkpt lat="44.73359" lon="4.97677">
        <ele>311.12</ele>
        <time>2012-05-05T13:54:51Z</time>
      </trkpt>
      <trkpt lat="44.73362" lon="4.97658">
        <ele>309.2</ele>
        <time>2012-05-05T13:54:58Z</time>
      </trkpt>
      <trkpt lat="44.73361" lon="4.97639">
        <ele>309.2</ele>
        <time>2012-05-05T13:55:03Z</time>
      </trkpt>
      <trkpt lat="44.73363" lon="4.97628">
        <ele>308.72</ele>
        <time>2012-05-05T13:55:07Z</time>
      </trkpt>
      <trkpt lat="44.7336" lon="4.97616">
        <ele>307.76</ele>
        <time>2012-05-05T13:55:11Z</time>
      </trkpt>
      <trkpt lat="44.7337" lon="4.97574">
        <ele>307.76</ele>
        <time>2012-05-05T13:55:21Z</time>
      </trkpt>
      <trkpt lat="44.73373" lon="4.97572">
        <ele>307.76</ele>
        <time>2012-05-05T13:55:32Z</time>
      </trkpt>
      <trkpt lat="44.73377" lon="4.97564">
        <ele>304.88</ele>
        <time>2012-05-05T13:55:44Z</time>
      </trkpt>
      <trkpt lat="44.73376" lon="4.97564">
        <ele>304.39</ele>
        <time>2012-05-05T13:56:04Z</time>
      </trkpt>
      <trkpt lat="44.7338" lon="4.97559">
        <ele>308.72</ele>
        <time>2012-05-05T13:56:11Z</time>
      </trkpt>
      <trkpt lat="44.73381" lon="4.97557">
        <ele>308.72</ele>
        <time>2012-05-05T13:56:12Z</time>
      </trkpt>
      <trkpt lat="44.73385" lon="4.97549">
        <ele>309.68</ele>
        <time>2012-05-05T13:56:22Z</time>
      </trkpt>
      <trkpt lat="44.734" lon="4.97542">
        <ele>310.64</ele>
        <time>2012-05-05T13:56:30Z</time>
      </trkpt>
      <trkpt lat="44.7341" lon="4.97513">
        <ele>310.16</ele>
        <time>2012-05-05T13:56:39Z</time>
      </trkpt>
      <trkpt lat="44.7342" lon="4.97463">
        <ele>309.2</ele>
        <time>2012-05-05T13:56:49Z</time>
      </trkpt>
      <trkpt lat="44.73422" lon="4.97455">
        <ele>309.2</ele>
        <time>2012-05-05T13:56:51Z</time>
      </trkpt>
      <trkpt lat="44.73431" lon="4.97444">
        <ele>309.68</ele>
        <time>2012-05-05T13:56:56Z</time>
      </trkpt>
      <trkpt lat="44.73439" lon="4.97419">
        <ele>310.16</ele>
        <time>2012-05-05T13:57:03Z</time>
      </trkpt>
      <trkpt lat="44.73444" lon="4.97398">
        <ele>309.68</ele>
        <time>2012-05-05T13:57:12Z</time>
      </trkpt>
      <trkpt lat="44.73445" lon="4.97396">
        <ele>309.68</ele>
        <time>2012-05-05T13:57:24Z</time>
      </trkpt>
      <trkpt lat="44.73455" lon="4.97345">
        <ele>309.68</ele>
        <time>2012-05-05T13:57:36Z</time>
      </trkpt>
      <trkpt lat="44.73459" lon="4.97321">
        <ele>309.2</ele>
        <time>2012-05-05T13:57:41Z</time>
      </trkpt>
      <trkpt lat="44.73455" lon="4.97297">
        <ele>309.2</ele>
        <time>2012-05-05T13:57:46Z</time>
      </trkpt>
      <trkpt lat="44.73462" lon="4.97255">
        <ele>308.72</ele>
        <time>2012-05-05T13:57:54Z</time>
      </trkpt>
      <trkpt lat="44.73477" lon="4.97227">
        <ele>309.2</ele>
        <time>2012-05-05T13:58:03Z</time>
      </trkpt>
      <trkpt lat="44.73477" lon="4.97225">
        <ele>309.2</ele>
        <time>2012-05-05T13:58:04Z</time>
      </trkpt>
      <trkpt lat="44.73477" lon="4.97219">
        <ele>309.2</ele>
        <time>2012-05-05T13:58:06Z</time>
      </trkpt>
      <trkpt lat="44.73487" lon="4.97186">
        <ele>308.72</ele>
        <time>2012-05-05T13:58:19Z</time>
      </trkpt>
      <trkpt lat="44.73497" lon="4.97153">
        <ele>309.2</ele>
        <time>2012-05-05T13:58:31Z</time>
      </trkpt>
      <trkpt lat="44.73499" lon="4.97098">
        <ele>308.72</ele>
        <time>2012-05-05T13:58:42Z</time>
      </trkpt>
      <trkpt lat="44.73505" lon="4.97069">
        <ele>308.24</ele>
        <time>2012-05-05T13:58:47Z</time>
      </trkpt>
      <trkpt lat="44.73511" lon="4.97051">
        <ele>307.76</ele>
        <time>2012-05-05T13:58:50Z</time>
      </trkpt>
      <trkpt lat="44.73517" lon="4.97028">
        <ele>308.24</ele>
        <time>2012-05-05T13:58:54Z</time>
      </trkpt>
      <trkpt lat="44.73529" lon="4.96948">
        <ele>306.8</ele>
        <time>2012-05-05T13:59:06Z</time>
      </trkpt>
      <trkpt lat="44.73511" lon="4.9689">
        <ele>306.32</ele>
        <time>2012-05-05T13:59:16Z</time>
      </trkpt>
      <trkpt lat="44.73486" lon="4.96867">
        <ele>306.8</ele>
        <time>2012-05-05T13:59:27Z</time>
      </trkpt>
      <trkpt lat="44.73485" lon="4.96867">
        <ele>306.32</ele>
        <time>2012-05-05T13:59:56Z</time>
      </trkpt>
      <trkpt lat="44.73485" lon="4.96867">
        <ele>306.8</ele>
        <time>2012-05-05T14:00:33Z</time>
      </trkpt>
      <trkpt lat="44.73451" lon="4.96862">
        <ele>306.8</ele>
        <time>2012-05-05T14:00:46Z</time>
      </trkpt>
      <trkpt lat="44.73405" lon="4.96857">
        <ele>307.28</ele>
        <time>2012-05-05T14:00:58Z</time>
      </trkpt>
      <trkpt lat="44.73401" lon="4.96857">
        <ele>306.8</ele>
        <time>2012-05-05T14:00:59Z</time>
      </trkpt>
      <trkpt lat="44.73348" lon="4.96851">
        <ele>306.8</ele>
        <time>2012-05-05T14:01:14Z</time>
      </trkpt>
      <trkpt lat="44.73336" lon="4.96863">
        <ele>306.8</ele>
        <time>2012-05-05T14:01:24Z</time>
      </trkpt>
      <trkpt lat="44.73332" lon="4.96872">
        <ele>306.8</ele>
        <time>2012-05-05T14:01:27Z</time>
      </trkpt>
      <trkpt lat="44.73317" lon="4.96873">
        <ele>307.76</ele>
        <time>2012-05-05T14:01:37Z</time>
      </trkpt>
      <trkpt lat="44.73303" lon="4.96874">
        <ele>306.8</ele>
        <time>2012-05-05T14:01:51Z</time>
      </trkpt>
      <trkpt lat="44.73299" lon="4.96874">
        <ele>306.32</ele>
        <time>2012-05-05T14:01:59Z</time>
      </trkpt>
      <trkpt lat="44.73302" lon="4.96874">
        <ele>306.8</ele>
        <time>2012-05-05T14:02:02Z</time>
      </trkpt>
      <trkpt lat="44.73318" lon="4.96873">
        <ele>307.76</ele>
        <time>2012-05-05T14:02:18Z</time>
      </trkpt>
      <trkpt lat="44.73319" lon="4.96873">
        <ele>307.28</ele>
        <time>2012-05-05T14:02:38Z</time>
      </trkpt>
      <trkpt lat="44.73317" lon="4.96873">
        <ele>308.24</ele>
        <time>2012-05-05T14:03:06Z</time>
      </trkpt>
      <trkpt lat="44.7333" lon="4.96871">
        <ele>306.8</ele>
        <time>2012-05-05T14:03:12Z</time>
      </trkpt>
      <trkpt lat="44.73338" lon="4.96855">
        <ele>306.8</ele>
        <time>2012-05-05T14:03:17Z</time>
      </trkpt>
      <trkpt lat="44.73332" lon="4.96821">
        <ele>306.8</ele>
        <time>2012-05-05T14:03:27Z</time>
      </trkpt>
      <trkpt lat="44.73334" lon="4.96777">
        <ele>306.32</ele>
        <time>2012-05-05T14:03:36Z</time>
      </trkpt>
      <trkpt lat="44.73346" lon="4.96724">
        <ele>305.36</ele>
        <time>2012-05-05T14:03:48Z</time>
      </trkpt>
      <trkpt lat="44.73353" lon="4.96702">
        <ele>305.36</ele>
        <time>2012-05-05T14:03:56Z</time>
      </trkpt>
      <trkpt lat="44.73359" lon="4.96694">
        <ele>305.36</ele>
        <time>2012-05-05T14:04:00Z</time>
      </trkpt>
      <trkpt lat="44.73365" lon="4.96683">
        <ele>305.36</ele>
        <time>2012-05-05T14:04:04Z</time>
      </trkpt>
      <trkpt lat="44.73369" lon="4.96675">
        <ele>305.36</ele>
        <time>2012-05-05T14:04:08Z</time>
      </trkpt>
      <trkpt lat="44.73371" lon="4.96666">
        <ele>305.36</ele>
        <time>2012-05-05T14:04:12Z</time>
      </trkpt>
      <trkpt lat="44.73375" lon="4.96642">
        <ele>305.36</ele>
        <time>2012-05-05T14:04:21Z</time>
      </trkpt>
      <trkpt lat="44.73375" lon="4.96637">
        <ele>305.36</ele>
        <time>2012-05-05T14:04:22Z</time>
      </trkpt>
      <trkpt lat="44.73375" lon="4.96625">
        <ele>305.36</ele>
        <time>2012-05-05T14:04:26Z</time>
      </trkpt>
      <trkpt lat="44.7338" lon="4.96611">
        <ele>304.88</ele>
        <time>2012-05-05T14:04:30Z</time>
      </trkpt>
      <trkpt lat="44.73394" lon="4.96576">
        <ele>305.36</ele>
        <time>2012-05-05T14:04:40Z</time>
      </trkpt>
      <trkpt lat="44.73395" lon="4.96572">
        <ele>305.84</ele>
        <time>2012-05-05T14:04:41Z</time>
      </trkpt>
      <trkpt lat="44.7341" lon="4.96542">
        <ele>305.84</ele>
        <time>2012-05-05T14:04:49Z</time>
      </trkpt>
      <trkpt lat="44.73425" lon="4.96528">
        <ele>305.84</ele>
        <time>2012-05-05T14:05:00Z</time>
      </trkpt>
      <trkpt lat="44.73423" lon="4.96514">
        <ele>305.36</ele>
        <time>2012-05-05T14:05:19Z</time>
      </trkpt>
      <trkpt lat="44.73423" lon="4.96514">
        <ele>304.88</ele>
        <time>2012-05-05T14:05:20Z</time>
      </trkpt>
      <trkpt lat="44.73432" lon="4.96499">
        <ele>305.36</ele>
        <time>2012-05-05T14:05:27Z</time>
      </trkpt>
      <trkpt lat="44.73437" lon="4.9649">
        <ele>305.36</ele>
        <time>2012-05-05T14:05:31Z</time>
      </trkpt>
      <trkpt lat="44.73439" lon="4.96486">
        <ele>306.32</ele>
        <time>2012-05-05T14:05:33Z</time>
      </trkpt>
      <trkpt lat="44.73443" lon="4.96472">
        <ele>305.36</ele>
        <time>2012-05-05T14:05:38Z</time>
      </trkpt>
      <trkpt lat="44.7345" lon="4.96453">
        <ele>305.36</ele>
        <time>2012-05-05T14:05:44Z</time>
      </trkpt>
      <trkpt lat="44.73454" lon="4.96444">
        <ele>304.88</ele>
        <time>2012-05-05T14:05:49Z</time>
      </trkpt>
      <trkpt lat="44.73455" lon="4.96442">
        <ele>305.36</ele>
        <time>2012-05-05T14:05:51Z</time>
      </trkpt>
      <trkpt lat="44.73454" lon="4.96436">
        <ele>305.36</ele>
        <time>2012-05-05T14:05:54Z</time>
      </trkpt>
      <trkpt lat="44.73453" lon="4.96426">
        <ele>304.88</ele>
        <time>2012-05-05T14:06:05Z</time>
      </trkpt>
      <trkpt lat="44.73454" lon="4.96424">
        <ele>305.36</ele>
        <time>2012-05-05T14:06:19Z</time>
      </trkpt>
      <trkpt lat="44.73455" lon="4.96417">
        <ele>304.88</ele>
        <time>2012-05-05T14:07:37Z</time>
      </trkpt>
      <trkpt lat="44.73459" lon="4.96405">
        <ele>304.88</ele>
        <time>2012-05-05T14:07:43Z</time>
      </trkpt>
      <trkpt lat="44.73461" lon="4.96384">
        <ele>304.88</ele>
        <time>2012-05-05T14:07:50Z</time>
      </trkpt>
      <trkpt lat="44.73462" lon="4.96359">
        <ele>304.39</ele>
        <time>2012-05-05T14:07:57Z</time>
      </trkpt>
      <trkpt lat="44.73469" lon="4.96327">
        <ele>304.39</ele>
        <time>2012-05-05T14:08:06Z</time>
      </trkpt>
      <trkpt lat="44.73478" lon="4.96309">
        <ele>304.39</ele>
        <time>2012-05-05T14:08:12Z</time>
      </trkpt>
      <trkpt lat="44.73487" lon="4.96272">
        <ele>304.88</ele>
        <time>2012-05-05T14:08:22Z</time>
      </trkpt>
      <trkpt lat="44.73484" lon="4.96267">
        <ele>305.36</ele>
        <time>2012-05-05T14:08:34Z</time>
      </trkpt>
      <trkpt lat="44.73486" lon="4.96258">
        <ele>304.39</ele>
        <time>2012-05-05T14:08:37Z</time>
      </trkpt>
      <trkpt lat="44.73487" lon="4.96248">
        <ele>303.91</ele>
        <time>2012-05-05T14:08:40Z</time>
      </trkpt>
      <trkpt lat="44.7349" lon="4.96244">
        <ele>303.43</ele>
        <time>2012-05-05T14:08:50Z</time>
      </trkpt>
      <trkpt lat="44.73492" lon="4.96237">
        <ele>303.43</ele>
        <time>2012-05-05T14:08:53Z</time>
      </trkpt>
      <trkpt lat="44.73487" lon="4.96223">
        <ele>303.91</ele>
        <time>2012-05-05T14:08:59Z</time>
      </trkpt>
      <trkpt lat="44.73485" lon="4.96205">
        <ele>302.95</ele>
        <time>2012-05-05T14:09:05Z</time>
      </trkpt>
      <trkpt lat="44.73482" lon="4.96191">
        <ele>302.47</ele>
        <time>2012-05-05T14:09:08Z</time>
      </trkpt>
      <trkpt lat="44.73483" lon="4.96169">
        <ele>303.43</ele>
        <time>2012-05-05T14:09:14Z</time>
      </trkpt>
      <trkpt lat="44.7348" lon="4.96151">
        <ele>302.47</ele>
        <time>2012-05-05T14:09:17Z</time>
      </trkpt>
      <trkpt lat="44.7348" lon="4.96143">
        <ele>302.47</ele>
        <time>2012-05-05T14:09:19Z</time>
      </trkpt>
      <trkpt lat="44.73481" lon="4.96141">
        <ele>302.47</ele>
        <time>2012-05-05T14:09:23Z</time>
      </trkpt>
      <trkpt lat="44.73478" lon="4.96145">
        <ele>302.47</ele>
        <time>2012-05-05T14:09:26Z</time>
      </trkpt>
      <trkpt lat="44.73477" lon="4.96163">
        <ele>301.99</ele>
        <time>2012-05-05T14:09:33Z</time>
      </trkpt>
      <trkpt lat="44.73479" lon="4.96182">
        <ele>302.95</ele>
        <time>2012-05-05T14:09:41Z</time>
      </trkpt>
      <trkpt lat="44.73477" lon="4.96188">
        <ele>303.43</ele>
        <time>2012-05-05T14:09:44Z</time>
      </trkpt>
      <trkpt lat="44.73482" lon="4.96194">
        <ele>303.43</ele>
        <time>2012-05-05T14:09:48Z</time>
      </trkpt>
      <trkpt lat="44.73487" lon="4.96199">
        <ele>303.91</ele>
        <time>2012-05-05T14:09:52Z</time>
      </trkpt>
      <trkpt lat="44.7349" lon="4.96199">
        <ele>303.91</ele>
        <time>2012-05-05T14:09:54Z</time>
      </trkpt>
      <trkpt lat="44.73508" lon="4.96213">
        <ele>302.95</ele>
        <time>2012-05-05T14:10:03Z</time>
      </trkpt>
      <trkpt lat="44.73533" lon="4.96236">
        <ele>303.91</ele>
        <time>2012-05-05T14:10:13Z</time>
      </trkpt>
      <trkpt lat="44.73555" lon="4.96258">
        <ele>304.39</ele>
        <time>2012-05-05T14:10:22Z</time>
      </trkpt>
      <trkpt lat="44.73582" lon="4.96284">
        <ele>304.88</ele>
        <time>2012-05-05T14:10:31Z</time>
      </trkpt>
      <trkpt lat="44.73616" lon="4.96316">
        <ele>304.39</ele>
        <time>2012-05-05T14:10:42Z</time>
      </trkpt>
      <trkpt lat="44.73638" lon="4.96341">
        <ele>303.91</ele>
        <time>2012-05-05T14:10:53Z</time>
      </trkpt>
      <trkpt lat="44.73659" lon="4.96363">
        <ele>304.39</ele>
        <time>2012-05-05T14:11:04Z</time>
      </trkpt>
      <trkpt lat="44.73663" lon="4.96364">
        <ele>304.39</ele>
        <time>2012-05-05T14:11:15Z</time>
      </trkpt>
      <trkpt lat="44.73662" lon="4.96364">
        <ele>304.39</ele>
        <time>2012-05-05T14:11:21Z</time>
      </trkpt>
      <trkpt lat="44.73671" lon="4.96341">
        <ele>304.39</ele>
        <time>2012-05-05T14:11:30Z</time>
      </trkpt>
      <trkpt lat="44.73682" lon="4.96311">
        <ele>304.39</ele>
        <time>2012-05-05T14:11:38Z</time>
      </trkpt>
      <trkpt lat="44.73686" lon="4.96261">
        <ele>303.43</ele>
        <time>2012-05-05T14:11:50Z</time>
      </trkpt>
      <trkpt lat="44.73695" lon="4.96232">
        <ele>302.95</ele>
        <time>2012-05-05T14:11:56Z</time>
      </trkpt>
      <trkpt lat="44.73703" lon="4.96197">
        <ele>303.43</ele>
        <time>2012-05-05T14:12:04Z</time>
      </trkpt>
      <trkpt lat="44.73703" lon="4.96169">
        <ele>302.95</ele>
        <time>2012-05-05T14:12:14Z</time>
      </trkpt>
      <trkpt lat="44.73706" lon="4.96156">
        <ele>302.95</ele>
        <time>2012-05-05T14:12:17Z</time>
      </trkpt>
      <trkpt lat="44.7371" lon="4.96141">
        <ele>302.47</ele>
        <time>2012-05-05T14:12:24Z</time>
      </trkpt>
      <trkpt lat="44.73713" lon="4.96132">
        <ele>302.95</ele>
        <time>2012-05-05T14:12:27Z</time>
      </trkpt>
      <trkpt lat="44.73722" lon="4.96117">
        <ele>302.47</ele>
        <time>2012-05-05T14:12:33Z</time>
      </trkpt>
      <trkpt lat="44.73728" lon="4.96105">
        <ele>303.43</ele>
        <time>2012-05-05T14:12:39Z</time>
      </trkpt>
      <trkpt lat="44.73732" lon="4.96099">
        <ele>302.95</ele>
        <time>2012-05-05T14:12:41Z</time>
      </trkpt>
      <trkpt lat="44.73737" lon="4.96083">
        <ele>302.95</ele>
        <time>2012-05-05T14:12:45Z</time>
      </trkpt>
      <trkpt lat="44.73752" lon="4.96049">
        <ele>302.47</ele>
        <time>2012-05-05T14:12:57Z</time>
      </trkpt>
      <trkpt lat="44.73767" lon="4.96027">
        <ele>302.95</ele>
        <time>2012-05-05T14:13:03Z</time>
      </trkpt>
      <trkpt lat="44.73778" lon="4.96019">
        <ele>302.47</ele>
        <time>2012-05-05T14:13:13Z</time>
      </trkpt>
      <trkpt lat="44.73781" lon="4.96018">
        <ele>302.47</ele>
        <time>2012-05-05T14:13:19Z</time>
      </trkpt>
      <trkpt lat="44.73786" lon="4.9604">
        <ele>302.47</ele>
        <time>2012-05-05T14:13:30Z</time>
      </trkpt>
      <trkpt lat="44.73792" lon="4.96065">
        <ele>302.95</ele>
        <time>2012-05-05T14:13:42Z</time>
      </trkpt>
      <trkpt lat="44.73809" lon="4.96066">
        <ele>303.91</ele>
        <time>2012-05-05T14:13:51Z</time>
      </trkpt>
      <trkpt lat="44.73814" lon="4.96055">
        <ele>303.43</ele>
        <time>2012-05-05T14:13:55Z</time>
      </trkpt>
      <trkpt lat="44.73816" lon="4.96048">
        <ele>303.43</ele>
        <time>2012-05-05T14:13:57Z</time>
      </trkpt>
      <trkpt lat="44.73816" lon="4.96005">
        <ele>301.99</ele>
        <time>2012-05-05T14:14:09Z</time>
      </trkpt>
      <trkpt lat="44.73816" lon="4.95988">
        <ele>301.99</ele>
        <time>2012-05-05T14:14:14Z</time>
      </trkpt>
      <trkpt lat="44.73832" lon="4.95959">
        <ele>302.47</ele>
        <time>2012-05-05T14:14:24Z</time>
      </trkpt>
      <trkpt lat="44.73842" lon="4.95913">
        <ele>302.47</ele>
        <time>2012-05-05T14:14:35Z</time>
      </trkpt>
      <trkpt lat="44.73849" lon="4.95891">
        <ele>301.99</ele>
        <time>2012-05-05T14:14:40Z</time>
      </trkpt>
      <trkpt lat="44.73865" lon="4.95882">
        <ele>301.99</ele>
        <time>2012-05-05T14:14:46Z</time>
      </trkpt>
      <trkpt lat="44.73894" lon="4.95868">
        <ele>301.99</ele>
        <time>2012-05-05T14:14:55Z</time>
      </trkpt>
      <trkpt lat="44.7392" lon="4.95872">
        <ele>297.67</ele>
        <time>2012-05-05T14:15:03Z</time>
      </trkpt>
      <trkpt lat="44.73923" lon="4.95873">
        <ele>297.67</ele>
        <time>2012-05-05T14:15:04Z</time>
      </trkpt>
      <trkpt lat="44.73926" lon="4.95873">
        <ele>297.67</ele>
        <time>2012-05-05T14:15:14Z</time>
      </trkpt>
      <trkpt lat="44.73926" lon="4.95873">
        <ele>298.63</ele>
        <time>2012-05-05T14:15:17Z</time>
      </trkpt>
      <trkpt lat="44.73944" lon="4.95875">
        <ele>301.03</ele>
        <time>2012-05-05T14:15:39Z</time>
      </trkpt>
      <trkpt lat="44.73987" lon="4.95884">
        <ele>300.55</ele>
        <time>2012-05-05T14:15:50Z</time>
      </trkpt>
      <trkpt lat="44.74006" lon="4.95891">
        <ele>301.51</ele>
        <time>2012-05-05T14:15:55Z</time>
      </trkpt>
      <trkpt lat="44.7405" lon="4.95904">
        <ele>301.03</ele>
        <time>2012-05-05T14:16:07Z</time>
      </trkpt>
      <trkpt lat="44.74056" lon="4.95903">
        <ele>301.51</ele>
        <time>2012-05-05T14:16:12Z</time>
      </trkpt>
      <trkpt lat="44.74069" lon="4.95877">
        <ele>301.51</ele>
        <time>2012-05-05T14:16:22Z</time>
      </trkpt>
      <trkpt lat="44.74073" lon="4.95864">
        <ele>301.03</ele>
        <time>2012-05-05T14:16:25Z</time>
      </trkpt>
      <trkpt lat="44.7409" lon="4.95806">
        <ele>301.03</ele>
        <time>2012-05-05T14:16:38Z</time>
      </trkpt>
      <trkpt lat="44.74091" lon="4.95802">
        <ele>301.03</ele>
        <time>2012-05-05T14:16:39Z</time>
      </trkpt>
      <trkpt lat="44.74106" lon="4.95736">
        <ele>301.03</ele>
        <time>2012-05-05T14:16:51Z</time>
      </trkpt>
      <trkpt lat="44.74116" lon="4.95715">
        <ele>301.03</ele>
        <time>2012-05-05T14:16:59Z</time>
      </trkpt>
      <trkpt lat="44.74126" lon="4.95691">
        <ele>300.55</ele>
        <time>2012-05-05T14:17:20Z</time>
      </trkpt>
      <trkpt lat="44.74156" lon="4.95642">
        <ele>300.55</ele>
        <time>2012-05-05T14:17:32Z</time>
      </trkpt>
      <trkpt lat="44.74188" lon="4.95621">
        <ele>301.51</ele>
        <time>2012-05-05T14:17:43Z</time>
      </trkpt>
      <trkpt lat="44.74191" lon="4.9562">
        <ele>300.55</ele>
        <time>2012-05-05T14:17:53Z</time>
      </trkpt>
      <trkpt lat="44.74216" lon="4.95636">
        <ele>301.03</ele>
        <time>2012-05-05T14:18:04Z</time>
      </trkpt>
      <trkpt lat="44.74245" lon="4.95654">
        <ele>300.55</ele>
        <time>2012-05-05T14:18:15Z</time>
      </trkpt>
      <trkpt lat="44.74247" lon="4.95658">
        <ele>299.59</ele>
        <time>2012-05-05T14:18:29Z</time>
      </trkpt>
      <trkpt lat="44.74249" lon="4.9566">
        <ele>300.07</ele>
        <time>2012-05-05T14:18:32Z</time>
      </trkpt>
      <trkpt lat="44.74254" lon="4.95663">
        <ele>301.03</ele>
        <time>2012-05-05T14:18:37Z</time>
      </trkpt>
      <trkpt lat="44.7426" lon="4.95666">
        <ele>301.03</ele>
        <time>2012-05-05T14:18:43Z</time>
      </trkpt>
      <trkpt lat="44.74264" lon="4.95649">
        <ele>300.55</ele>
        <time>2012-05-05T14:18:49Z</time>
      </trkpt>
      <trkpt lat="44.74268" lon="4.95635">
        <ele>301.03</ele>
        <time>2012-05-05T14:18:54Z</time>
      </trkpt>
      <trkpt lat="44.7428" lon="4.95596">
        <ele>300.55</ele>
        <time>2012-05-05T14:19:07Z</time>
      </trkpt>
      <trkpt lat="44.74283" lon="4.9558">
        <ele>300.55</ele>
        <time>2012-05-05T14:19:11Z</time>
      </trkpt>
      <trkpt lat="44.7429" lon="4.95565">
        <ele>300.55</ele>
        <time>2012-05-05T14:19:19Z</time>
      </trkpt>
      <trkpt lat="44.74291" lon="4.95562">
        <ele>301.03</ele>
        <time>2012-05-05T14:19:22Z</time>
      </trkpt>
      <trkpt lat="44.74294" lon="4.95542">
        <ele>300.55</ele>
        <time>2012-05-05T14:19:31Z</time>
      </trkpt>
      <trkpt lat="44.74299" lon="4.95522">
        <ele>300.55</ele>
        <time>2012-05-05T14:19:38Z</time>
      </trkpt>
      <trkpt lat="44.74306" lon="4.95494">
        <ele>300.07</ele>
        <time>2012-05-05T14:19:49Z</time>
      </trkpt>
      <trkpt lat="44.74308" lon="4.95483">
        <ele>299.59</ele>
        <time>2012-05-05T14:19:52Z</time>
      </trkpt>
      <trkpt lat="44.74319" lon="4.95443">
        <ele>300.07</ele>
        <time>2012-05-05T14:20:05Z</time>
      </trkpt>
      <trkpt lat="44.74323" lon="4.95433">
        <ele>299.59</ele>
        <time>2012-05-05T14:20:08Z</time>
      </trkpt>
      <trkpt lat="44.74326" lon="4.9542">
        <ele>299.11</ele>
        <time>2012-05-05T14:20:12Z</time>
      </trkpt>
      <trkpt lat="44.74335" lon="4.95385">
        <ele>299.59</ele>
        <time>2012-05-05T14:20:24Z</time>
      </trkpt>
      <trkpt lat="44.74345" lon="4.95355">
        <ele>299.11</ele>
        <time>2012-05-05T14:20:34Z</time>
      </trkpt>
      <trkpt lat="44.74346" lon="4.95349">
        <ele>299.11</ele>
        <time>2012-05-05T14:20:36Z</time>
      </trkpt>
      <trkpt lat="44.74354" lon="4.95313">
        <ele>299.11</ele>
        <time>2012-05-05T14:20:46Z</time>
      </trkpt>
      <trkpt lat="44.74361" lon="4.95288">
        <ele>299.11</ele>
        <time>2012-05-05T14:20:53Z</time>
      </trkpt>
      <trkpt lat="44.74371" lon="4.95245">
        <ele>298.63</ele>
        <time>2012-05-05T14:21:04Z</time>
      </trkpt>
      <trkpt lat="44.7438" lon="4.95207">
        <ele>298.63</ele>
        <time>2012-05-05T14:21:15Z</time>
      </trkpt>
      <trkpt lat="44.74381" lon="4.95201">
        <ele>298.15</ele>
        <time>2012-05-05T14:21:17Z</time>
      </trkpt>
      <trkpt lat="44.74389" lon="4.95164">
        <ele>298.15</ele>
        <time>2012-05-05T14:21:28Z</time>
      </trkpt>
      <trkpt lat="44.74395" lon="4.95135">
        <ele>298.15</ele>
        <time>2012-05-05T14:21:36Z</time>
      </trkpt>
      <trkpt lat="44.74397" lon="4.95124">
        <ele>298.15</ele>
        <time>2012-05-05T14:21:39Z</time>
      </trkpt>
      <trkpt lat="44.74402" lon="4.95099">
        <ele>297.67</ele>
        <time>2012-05-05T14:21:49Z</time>
      </trkpt>
      <trkpt lat="44.74402" lon="4.95096">
        <ele>298.15</ele>
        <time>2012-05-05T14:21:59Z</time>
      </trkpt>
      <trkpt lat="44.74401" lon="4.9508">
        <ele>298.15</ele>
        <time>2012-05-05T14:22:03Z</time>
      </trkpt>
      <trkpt lat="44.74402" lon="4.94991">
        <ele>297.18</ele>
        <time>2012-05-05T14:22:19Z</time>
      </trkpt>
      <trkpt lat="44.74397" lon="4.94909">
        <ele>297.18</ele>
        <time>2012-05-05T14:22:34Z</time>
      </trkpt>
      <trkpt lat="44.74392" lon="4.94846">
        <ele>297.67</ele>
        <time>2012-05-05T14:22:48Z</time>
      </trkpt>
      <trkpt lat="44.74389" lon="4.94804">
        <ele>297.67</ele>
        <time>2012-05-05T14:22:59Z</time>
      </trkpt>
      <trkpt lat="44.74385" lon="4.94785">
        <ele>296.7</ele>
        <time>2012-05-05T14:23:04Z</time>
      </trkpt>
      <trkpt lat="44.74375" lon="4.94735">
        <ele>296.7</ele>
        <time>2012-05-05T14:23:16Z</time>
      </trkpt>
      <trkpt lat="44.74373" lon="4.94727">
        <ele>297.18</ele>
        <time>2012-05-05T14:23:18Z</time>
      </trkpt>
      <trkpt lat="44.74365" lon="4.9472">
        <ele>296.7</ele>
        <time>2012-05-05T14:23:27Z</time>
      </trkpt>
      <trkpt lat="44.74362" lon="4.94723">
        <ele>296.7</ele>
        <time>2012-05-05T14:23:30Z</time>
      </trkpt>
      <trkpt lat="44.74353" lon="4.9472">
        <ele>298.15</ele>
        <time>2012-05-05T14:23:41Z</time>
      </trkpt>
      <trkpt lat="44.74353" lon="4.94719">
        <ele>297.18</ele>
        <time>2012-05-05T14:24:12Z</time>
      </trkpt>
      <trkpt lat="44.74354" lon="4.94718">
        <ele>298.63</ele>
        <time>2012-05-05T14:25:19Z</time>
      </trkpt>
      <trkpt lat="44.74351" lon="4.94708">
        <ele>297.18</ele>
        <time>2012-05-05T14:25:24Z</time>
      </trkpt>
      <trkpt lat="44.74347" lon="4.94688">
        <ele>298.15</ele>
        <time>2012-05-05T14:25:30Z</time>
      </trkpt>
      <trkpt lat="44.74345" lon="4.94673">
        <ele>299.11</ele>
        <time>2012-05-05T14:25:34Z</time>
      </trkpt>
      <trkpt lat="44.74335" lon="4.94656">
        <ele>298.63</ele>
        <time>2012-05-05T14:25:44Z</time>
      </trkpt>
      <trkpt lat="44.74335" lon="4.94656">
        <ele>298.63</ele>
        <time>2012-05-05T14:25:52Z</time>
      </trkpt>
      <trkpt lat="44.74336" lon="4.94653">
        <ele>298.63</ele>
        <time>2012-05-05T14:26:00Z</time>
      </trkpt>
      <trkpt lat="44.74336" lon="4.94653">
        <ele>298.15</ele>
        <time>2012-05-05T14:26:15Z</time>
      </trkpt>
      <trkpt lat="44.74335" lon="4.94653">
        <ele>299.59</ele>
        <time>2012-05-05T14:26:18Z</time>
      </trkpt>
      <trkpt lat="44.74328" lon="4.94646">
        <ele>298.15</ele>
        <time>2012-05-05T14:26:23Z</time>
      </trkpt>
      <trkpt lat="44.74299" lon="4.94608">
        <ele>298.63</ele>
        <time>2012-05-05T14:26:35Z</time>
      </trkpt>
      <trkpt lat="44.74276" lon="4.94581">
        <ele>298.15</ele>
        <time>2012-05-05T14:26:46Z</time>
      </trkpt>
      <trkpt lat="44.74258" lon="4.94561">
        <ele>297.67</ele>
        <time>2012-05-05T14:27:12Z</time>
      </trkpt>
      <trkpt lat="44.7423" lon="4.94527">
        <ele>298.15</ele>
        <time>2012-05-05T14:27:25Z</time>
      </trkpt>
      <trkpt lat="44.7423" lon="4.94527">
        <ele>299.11</ele>
        <time>2012-05-05T14:27:30Z</time>
      </trkpt>
      <trkpt lat="44.74223" lon="4.94518">
        <ele>298.63</ele>
        <time>2012-05-05T14:27:42Z</time>
      </trkpt>
      <trkpt lat="44.74211" lon="4.945">
        <ele>298.63</ele>
        <time>2012-05-05T14:27:51Z</time>
      </trkpt>
      <trkpt lat="44.74194" lon="4.94454">
        <ele>297.67</ele>
        <time>2012-05-05T14:28:02Z</time>
      </trkpt>
      <trkpt lat="44.742" lon="4.94416">
        <ele>297.67</ele>
        <time>2012-05-05T14:28:09Z</time>
      </trkpt>
      <trkpt lat="44.74215" lon="4.94356">
        <ele>297.18</ele>
        <time>2012-05-05T14:28:21Z</time>
      </trkpt>
      <trkpt lat="44.74217" lon="4.94345">
        <ele>297.18</ele>
        <time>2012-05-05T14:28:23Z</time>
      </trkpt>
      <trkpt lat="44.74231" lon="4.94279">
        <ele>297.67</ele>
        <time>2012-05-05T14:28:35Z</time>
      </trkpt>
      <trkpt lat="44.74237" lon="4.94258">
        <ele>297.18</ele>
        <time>2012-05-05T14:28:39Z</time>
      </trkpt>
      <trkpt lat="44.74245" lon="4.94219">
        <ele>297.18</ele>
        <time>2012-05-05T14:28:46Z</time>
      </trkpt>
      <trkpt lat="44.7425" lon="4.94201">
        <ele>297.18</ele>
        <time>2012-05-05T14:28:49Z</time>
      </trkpt>
      <trkpt lat="44.74268" lon="4.94139">
        <ele>296.7</ele>
        <time>2012-05-05T14:29:00Z</time>
      </trkpt>
      <trkpt lat="44.74275" lon="4.94115">
        <ele>296.7</ele>
        <time>2012-05-05T14:29:04Z</time>
      </trkpt>
      <trkpt lat="44.74285" lon="4.94072">
        <ele>296.7</ele>
        <time>2012-05-05T14:29:11Z</time>
      </trkpt>
      <trkpt lat="44.7429" lon="4.94046">
        <ele>296.7</ele>
        <time>2012-05-05T14:29:15Z</time>
      </trkpt>
      <trkpt lat="44.74303" lon="4.93992">
        <ele>296.22</ele>
        <time>2012-05-05T14:29:23Z</time>
      </trkpt>
      <trkpt lat="44.74308" lon="4.93967">
        <ele>296.22</ele>
        <time>2012-05-05T14:29:27Z</time>
      </trkpt>
      <trkpt lat="44.74313" lon="4.93949">
        <ele>296.22</ele>
        <time>2012-05-05T14:29:30Z</time>
      </trkpt>
      <trkpt lat="44.7432" lon="4.93921">
        <ele>296.22</ele>
        <time>2012-05-05T14:29:35Z</time>
      </trkpt>
      <trkpt lat="44.74324" lon="4.93903">
        <ele>295.74</ele>
        <time>2012-05-05T14:29:38Z</time>
      </trkpt>
      <trkpt lat="44.74332" lon="4.93871">
        <ele>295.74</ele>
        <time>2012-05-05T14:29:43Z</time>
      </trkpt>
      <trkpt lat="44.74353" lon="4.93788">
        <ele>295.74</ele>
        <time>2012-05-05T14:29:57Z</time>
      </trkpt>
      <trkpt lat="44.74356" lon="4.93776">
        <ele>296.22</ele>
        <time>2012-05-05T14:29:59Z</time>
      </trkpt>
      <trkpt lat="44.74375" lon="4.93699">
        <ele>294.78</ele>
        <time>2012-05-05T14:30:12Z</time>
      </trkpt>
      <trkpt lat="44.74395" lon="4.93623">
        <ele>295.26</ele>
        <time>2012-05-05T14:30:25Z</time>
      </trkpt>
      <trkpt lat="44.74406" lon="4.93573">
        <ele>295.26</ele>
        <time>2012-05-05T14:30:33Z</time>
      </trkpt>
      <trkpt lat="44.74409" lon="4.9356">
        <ele>294.78</ele>
        <time>2012-05-05T14:30:35Z</time>
      </trkpt>
      <trkpt lat="44.74424" lon="4.93499">
        <ele>294.78</ele>
        <time>2012-05-05T14:30:45Z</time>
      </trkpt>
      <trkpt lat="44.74434" lon="4.93459">
        <ele>294.78</ele>
        <time>2012-05-05T14:30:52Z</time>
      </trkpt>
      <trkpt lat="44.74454" lon="4.93377">
        <ele>294.78</ele>
        <time>2012-05-05T14:31:06Z</time>
      </trkpt>
      <trkpt lat="44.74463" lon="4.93349">
        <ele>294.78</ele>
        <time>2012-05-05T14:31:11Z</time>
      </trkpt>
      <trkpt lat="44.74468" lon="4.93325">
        <ele>294.78</ele>
        <time>2012-05-05T14:31:15Z</time>
      </trkpt>
      <trkpt lat="44.74471" lon="4.93315">
        <ele>294.3</ele>
        <time>2012-05-05T14:31:17Z</time>
      </trkpt>
      <trkpt lat="44.74477" lon="4.93292">
        <ele>293.34</ele>
        <time>2012-05-05T14:31:21Z</time>
      </trkpt>
      <trkpt lat="44.74494" lon="4.93226">
        <ele>294.3</ele>
        <time>2012-05-05T14:31:32Z</time>
      </trkpt>
      <trkpt lat="44.745" lon="4.93202">
        <ele>293.82</ele>
        <time>2012-05-05T14:31:36Z</time>
      </trkpt>
      <trkpt lat="44.7451" lon="4.93165">
        <ele>294.3</ele>
        <time>2012-05-05T14:31:42Z</time>
      </trkpt>
      <trkpt lat="44.74528" lon="4.93097">
        <ele>292.86</ele>
        <time>2012-05-05T14:31:53Z</time>
      </trkpt>
      <trkpt lat="44.7454" lon="4.93047">
        <ele>292.86</ele>
        <time>2012-05-05T14:32:01Z</time>
      </trkpt>
      <trkpt lat="44.74563" lon="4.92952">
        <ele>293.34</ele>
        <time>2012-05-05T14:32:17Z</time>
      </trkpt>
      <trkpt lat="44.74573" lon="4.92915">
        <ele>292.86</ele>
        <time>2012-05-05T14:32:23Z</time>
      </trkpt>
      <trkpt lat="44.74576" lon="4.92896">
        <ele>293.34</ele>
        <time>2012-05-05T14:32:26Z</time>
      </trkpt>
      <trkpt lat="44.74596" lon="4.92816">
        <ele>292.38</ele>
        <time>2012-05-05T14:32:39Z</time>
      </trkpt>
      <trkpt lat="44.74613" lon="4.9275">
        <ele>292.38</ele>
        <time>2012-05-05T14:32:53Z</time>
      </trkpt>
      <trkpt lat="44.74627" lon="4.92702">
        <ele>292.38</ele>
        <time>2012-05-05T14:33:04Z</time>
      </trkpt>
      <trkpt lat="44.74635" lon="4.92671">
        <ele>292.38</ele>
        <time>2012-05-05T14:33:09Z</time>
      </trkpt>
      <trkpt lat="44.74646" lon="4.92629">
        <ele>291.9</ele>
        <time>2012-05-05T14:33:16Z</time>
      </trkpt>
      <trkpt lat="44.74659" lon="4.9258">
        <ele>291.42</ele>
        <time>2012-05-05T14:33:24Z</time>
      </trkpt>
      <trkpt lat="44.74673" lon="4.92527">
        <ele>290.94</ele>
        <time>2012-05-05T14:33:33Z</time>
      </trkpt>
      <trkpt lat="44.74693" lon="4.92445">
        <ele>290.46</ele>
        <time>2012-05-05T14:33:46Z</time>
      </trkpt>
      <trkpt lat="44.74698" lon="4.92427">
        <ele>290.46</ele>
        <time>2012-05-05T14:33:49Z</time>
      </trkpt>
      <trkpt lat="44.74717" lon="4.92353">
        <ele>290.94</ele>
        <time>2012-05-05T14:34:01Z</time>
      </trkpt>
      <trkpt lat="44.74729" lon="4.92306">
        <ele>290.46</ele>
        <time>2012-05-05T14:34:08Z</time>
      </trkpt>
      <trkpt lat="44.74754" lon="4.92206">
        <ele>290.46</ele>
        <time>2012-05-05T14:34:24Z</time>
      </trkpt>
      <trkpt lat="44.74768" lon="4.92156">
        <ele>289.97</ele>
        <time>2012-05-05T14:34:36Z</time>
      </trkpt>
      <trkpt lat="44.74779" lon="4.92123">
        <ele>289.97</ele>
        <time>2012-05-05T14:34:45Z</time>
      </trkpt>
      <trkpt lat="44.74788" lon="4.9209">
        <ele>289.49</ele>
        <time>2012-05-05T14:34:57Z</time>
      </trkpt>
      <trkpt lat="44.74799" lon="4.92057">
        <ele>289.49</ele>
        <time>2012-05-05T14:35:09Z</time>
      </trkpt>
      <trkpt lat="44.74806" lon="4.92028">
        <ele>289.49</ele>
        <time>2012-05-05T14:35:16Z</time>
      </trkpt>
      <trkpt lat="44.7481" lon="4.92018">
        <ele>289.49</ele>
        <time>2012-05-05T14:35:19Z</time>
      </trkpt>
      <trkpt lat="44.74818" lon="4.91972">
        <ele>292.38</ele>
        <time>2012-05-05T14:35:32Z</time>
      </trkpt>
      <trkpt lat="44.74821" lon="4.91957">
        <ele>291.9</ele>
        <time>2012-05-05T14:35:39Z</time>
      </trkpt>
      <trkpt lat="44.74822" lon="4.91952">
        <ele>290.94</ele>
        <time>2012-05-05T14:35:46Z</time>
      </trkpt>
      <trkpt lat="44.74834" lon="4.91921">
        <ele>287.09</ele>
        <time>2012-05-05T14:35:52Z</time>
      </trkpt>
      <trkpt lat="44.74838" lon="4.91903">
        <ele>286.61</ele>
        <time>2012-05-05T14:35:55Z</time>
      </trkpt>
      <trkpt lat="44.74843" lon="4.9187">
        <ele>287.57</ele>
        <time>2012-05-05T14:36:03Z</time>
      </trkpt>
      <trkpt lat="44.74853" lon="4.91827">
        <ele>289.01</ele>
        <time>2012-05-05T14:36:15Z</time>
      </trkpt>
      <trkpt lat="44.7487" lon="4.91766">
        <ele>288.53</ele>
        <time>2012-05-05T14:36:26Z</time>
      </trkpt>
      <trkpt lat="44.74874" lon="4.9175">
        <ele>289.01</ele>
        <time>2012-05-05T14:36:29Z</time>
      </trkpt>
      <trkpt lat="44.7488" lon="4.91726">
        <ele>288.53</ele>
        <time>2012-05-05T14:36:33Z</time>
      </trkpt>
      <trkpt lat="44.74887" lon="4.91696">
        <ele>288.53</ele>
        <time>2012-05-05T14:36:38Z</time>
      </trkpt>
      <trkpt lat="44.7489" lon="4.91685">
        <ele>288.53</ele>
        <time>2012-05-05T14:36:40Z</time>
      </trkpt>
      <trkpt lat="44.74904" lon="4.91637">
        <ele>288.53</ele>
        <time>2012-05-05T14:36:49Z</time>
      </trkpt>
      <trkpt lat="44.74917" lon="4.91581">
        <ele>288.05</ele>
        <time>2012-05-05T14:37:00Z</time>
      </trkpt>
      <trkpt lat="44.74927" lon="4.91541">
        <ele>288.53</ele>
        <time>2012-05-05T14:37:11Z</time>
      </trkpt>
      <trkpt lat="44.74927" lon="4.91538">
        <ele>288.05</ele>
        <time>2012-05-05T14:37:12Z</time>
      </trkpt>
      <trkpt lat="44.74933" lon="4.91513">
        <ele>288.05</ele>
        <time>2012-05-05T14:37:24Z</time>
      </trkpt>
      <trkpt lat="44.74949" lon="4.9145">
        <ele>289.01</ele>
        <time>2012-05-05T14:37:36Z</time>
      </trkpt>
      <trkpt lat="44.74954" lon="4.91434">
        <ele>288.05</ele>
        <time>2012-05-05T14:37:39Z</time>
      </trkpt>
      <trkpt lat="44.7496" lon="4.91409">
        <ele>288.53</ele>
        <time>2012-05-05T14:37:43Z</time>
      </trkpt>
      <trkpt lat="44.74974" lon="4.91347">
        <ele>287.09</ele>
        <time>2012-05-05T14:37:53Z</time>
      </trkpt>
      <trkpt lat="44.74976" lon="4.91334">
        <ele>287.57</ele>
        <time>2012-05-05T14:37:55Z</time>
      </trkpt>
      <trkpt lat="44.74983" lon="4.91305">
        <ele>287.57</ele>
        <time>2012-05-05T14:38:00Z</time>
      </trkpt>
      <trkpt lat="44.74989" lon="4.91282">
        <ele>288.05</ele>
        <time>2012-05-05T14:38:05Z</time>
      </trkpt>
      <trkpt lat="44.74994" lon="4.91269">
        <ele>285.17</ele>
        <time>2012-05-05T14:38:16Z</time>
      </trkpt>
      <trkpt lat="44.74994" lon="4.91269">
        <ele>281.8</ele>
        <time>2012-05-05T14:38:17Z</time>
      </trkpt>
      <trkpt lat="44.74994" lon="4.91269">
        <ele>283.25</ele>
        <time>2012-05-05T14:38:18Z</time>
      </trkpt>
      <trkpt lat="44.74995" lon="4.91267">
        <ele>283.73</ele>
        <time>2012-05-05T14:38:22Z</time>
      </trkpt>
      <trkpt lat="44.75" lon="4.91243">
        <ele>283.25</ele>
        <time>2012-05-05T14:38:29Z</time>
      </trkpt>
      <trkpt lat="44.75009" lon="4.912">
        <ele>282.77</ele>
        <time>2012-05-05T14:38:38Z</time>
      </trkpt>
      <trkpt lat="44.75012" lon="4.91192">
        <ele>282.28</ele>
        <time>2012-05-05T14:38:40Z</time>
      </trkpt>
      <trkpt lat="44.75015" lon="4.91178">
        <ele>286.13</ele>
        <time>2012-05-05T14:38:43Z</time>
      </trkpt>
      <trkpt lat="44.7502" lon="4.9116">
        <ele>284.69</ele>
        <time>2012-05-05T14:38:47Z</time>
      </trkpt>
      <trkpt lat="44.75025" lon="4.91142">
        <ele>285.65</ele>
        <time>2012-05-05T14:38:56Z</time>
      </trkpt>
      <trkpt lat="44.75027" lon="4.91134">
        <ele>286.13</ele>
        <time>2012-05-05T14:39:02Z</time>
      </trkpt>
      <trkpt lat="44.7503" lon="4.91117">
        <ele>283.73</ele>
        <time>2012-05-05T14:39:07Z</time>
      </trkpt>
      <trkpt lat="44.75035" lon="4.91106">
        <ele>285.65</ele>
        <time>2012-05-05T14:39:10Z</time>
      </trkpt>
      <trkpt lat="44.75047" lon="4.91064">
        <ele>285.65</ele>
        <time>2012-05-05T14:39:20Z</time>
      </trkpt>
      <trkpt lat="44.75055" lon="4.91026">
        <ele>286.13</ele>
        <time>2012-05-05T14:39:27Z</time>
      </trkpt>
      <trkpt lat="44.7507" lon="4.90972">
        <ele>286.61</ele>
        <time>2012-05-05T14:39:37Z</time>
      </trkpt>
      <trkpt lat="44.75084" lon="4.90921">
        <ele>285.65</ele>
        <time>2012-05-05T14:39:46Z</time>
      </trkpt>
      <trkpt lat="44.75088" lon="4.9091">
        <ele>285.65</ele>
        <time>2012-05-05T14:39:48Z</time>
      </trkpt>
      <trkpt lat="44.75093" lon="4.90881">
        <ele>285.65</ele>
        <time>2012-05-05T14:39:53Z</time>
      </trkpt>
      <trkpt lat="44.75099" lon="4.90856">
        <ele>285.65</ele>
        <time>2012-05-05T14:39:57Z</time>
      </trkpt>
      <trkpt lat="44.75107" lon="4.90815">
        <ele>284.69</ele>
        <time>2012-05-05T14:40:03Z</time>
      </trkpt>
      <trkpt lat="44.75112" lon="4.90794">
        <ele>286.13</ele>
        <time>2012-05-05T14:40:06Z</time>
      </trkpt>
      <trkpt lat="44.75114" lon="4.90788">
        <ele>285.65</ele>
        <time>2012-05-05T14:40:07Z</time>
      </trkpt>
      <trkpt lat="44.75119" lon="4.90755">
        <ele>284.21</ele>
        <time>2012-05-05T14:40:12Z</time>
      </trkpt>
      <trkpt lat="44.7512" lon="4.90743">
        <ele>284.69</ele>
        <time>2012-05-05T14:40:14Z</time>
      </trkpt>
      <trkpt lat="44.75127" lon="4.90719">
        <ele>284.69</ele>
        <time>2012-05-05T14:40:18Z</time>
      </trkpt>
      <trkpt lat="44.7513" lon="4.907">
        <ele>284.69</ele>
        <time>2012-05-05T14:40:21Z</time>
      </trkpt>
      <trkpt lat="44.75141" lon="4.90663">
        <ele>284.69</ele>
        <time>2012-05-05T14:40:27Z</time>
      </trkpt>
      <trkpt lat="44.75152" lon="4.90621">
        <ele>285.17</ele>
        <time>2012-05-05T14:40:34Z</time>
      </trkpt>
      <trkpt lat="44.75175" lon="4.90532">
        <ele>284.21</ele>
        <time>2012-05-05T14:40:48Z</time>
      </trkpt>
      <trkpt lat="44.75178" lon="4.90518">
        <ele>284.21</ele>
        <time>2012-05-05T14:40:50Z</time>
      </trkpt>
      <trkpt lat="44.75194" lon="4.9046">
        <ele>285.17</ele>
        <time>2012-05-05T14:41:00Z</time>
      </trkpt>
      <trkpt lat="44.75204" lon="4.90419">
        <ele>283.73</ele>
        <time>2012-05-05T14:41:07Z</time>
      </trkpt>
      <trkpt lat="44.75219" lon="4.9036">
        <ele>283.73</ele>
        <time>2012-05-05T14:41:17Z</time>
      </trkpt>
      <trkpt lat="44.75236" lon="4.90305">
        <ele>283.73</ele>
        <time>2012-05-05T14:41:27Z</time>
      </trkpt>
      <trkpt lat="44.7525" lon="4.90253">
        <ele>283.25</ele>
        <time>2012-05-05T14:41:37Z</time>
      </trkpt>
      <trkpt lat="44.75264" lon="4.90202">
        <ele>283.73</ele>
        <time>2012-05-05T14:41:47Z</time>
      </trkpt>
      <trkpt lat="44.75277" lon="4.90151">
        <ele>283.25</ele>
        <time>2012-05-05T14:41:57Z</time>
      </trkpt>
      <trkpt lat="44.75293" lon="4.90089">
        <ele>282.77</ele>
        <time>2012-05-05T14:42:09Z</time>
      </trkpt>
      <trkpt lat="44.75309" lon="4.90026">
        <ele>281.8</ele>
        <time>2012-05-05T14:42:21Z</time>
      </trkpt>
      <trkpt lat="44.75316" lon="4.9">
        <ele>282.77</ele>
        <time>2012-05-05T14:42:26Z</time>
      </trkpt>
      <trkpt lat="44.75322" lon="4.89972">
        <ele>281.8</ele>
        <time>2012-05-05T14:42:31Z</time>
      </trkpt>
      <trkpt lat="44.75329" lon="4.89946">
        <ele>282.28</ele>
        <time>2012-05-05T14:42:36Z</time>
      </trkpt>
      <trkpt lat="44.75347" lon="4.89882">
        <ele>281.8</ele>
        <time>2012-05-05T14:42:47Z</time>
      </trkpt>
      <trkpt lat="44.75358" lon="4.89839">
        <ele>281.32</ele>
        <time>2012-05-05T14:42:55Z</time>
      </trkpt>
      <trkpt lat="44.75362" lon="4.89817">
        <ele>281.32</ele>
        <time>2012-05-05T14:42:59Z</time>
      </trkpt>
      <trkpt lat="44.7537" lon="4.89782">
        <ele>282.28</ele>
        <time>2012-05-05T14:43:05Z</time>
      </trkpt>
      <trkpt lat="44.7538" lon="4.89749">
        <ele>281.32</ele>
        <time>2012-05-05T14:43:11Z</time>
      </trkpt>
      <trkpt lat="44.75395" lon="4.89689">
        <ele>281.32</ele>
        <time>2012-05-05T14:43:22Z</time>
      </trkpt>
      <trkpt lat="44.75399" lon="4.89672">
        <ele>281.8</ele>
        <time>2012-05-05T14:43:25Z</time>
      </trkpt>
      <trkpt lat="44.75403" lon="4.89654">
        <ele>281.32</ele>
        <time>2012-05-05T14:43:28Z</time>
      </trkpt>
      <trkpt lat="44.75406" lon="4.89642">
        <ele>281.32</ele>
        <time>2012-05-05T14:43:30Z</time>
      </trkpt>
      <trkpt lat="44.75413" lon="4.89621">
        <ele>281.8</ele>
        <time>2012-05-05T14:43:34Z</time>
      </trkpt>
      <trkpt lat="44.75424" lon="4.89559">
        <ele>280.84</ele>
        <time>2012-05-05T14:43:46Z</time>
      </trkpt>
      <trkpt lat="44.75436" lon="4.89517">
        <ele>280.36</ele>
        <time>2012-05-05T14:43:55Z</time>
      </trkpt>
      <trkpt lat="44.75446" lon="4.89487">
        <ele>280.36</ele>
        <time>2012-05-05T14:44:04Z</time>
      </trkpt>
      <trkpt lat="44.75455" lon="4.89443">
        <ele>279.88</ele>
        <time>2012-05-05T14:44:14Z</time>
      </trkpt>
      <trkpt lat="44.75468" lon="4.89395">
        <ele>280.36</ele>
        <time>2012-05-05T14:44:25Z</time>
      </trkpt>
      <trkpt lat="44.75469" lon="4.89392">
        <ele>279.88</ele>
        <time>2012-05-05T14:44:26Z</time>
      </trkpt>
      <trkpt lat="44.75474" lon="4.89378">
        <ele>279.4</ele>
        <time>2012-05-05T14:44:30Z</time>
      </trkpt>
      <trkpt lat="44.75484" lon="4.89338">
        <ele>279.88</ele>
        <time>2012-05-05T14:44:42Z</time>
      </trkpt>
      <trkpt lat="44.75494" lon="4.89295">
        <ele>280.36</ele>
        <time>2012-05-05T14:44:52Z</time>
      </trkpt>
      <trkpt lat="44.75507" lon="4.89248">
        <ele>279.4</ele>
        <time>2012-05-05T14:45:03Z</time>
      </trkpt>
      <trkpt lat="44.75518" lon="4.89209">
        <ele>279.4</ele>
        <time>2012-05-05T14:45:12Z</time>
      </trkpt>
      <trkpt lat="44.75532" lon="4.89157">
        <ele>278.44</ele>
        <time>2012-05-05T14:45:22Z</time>
      </trkpt>
      <trkpt lat="44.75541" lon="4.89111">
        <ele>278.92</ele>
        <time>2012-05-05T14:45:31Z</time>
      </trkpt>
      <trkpt lat="44.75556" lon="4.89046">
        <ele>278.44</ele>
        <time>2012-05-05T14:45:45Z</time>
      </trkpt>
      <trkpt lat="44.7557" lon="4.89004">
        <ele>277.96</ele>
        <time>2012-05-05T14:45:58Z</time>
      </trkpt>
      <trkpt lat="44.75572" lon="4.89">
        <ele>277.96</ele>
        <time>2012-05-05T14:45:59Z</time>
      </trkpt>
      <trkpt lat="44.75572" lon="4.88991">
        <ele>278.44</ele>
        <time>2012-05-05T14:46:02Z</time>
      </trkpt>
      <trkpt lat="44.75584" lon="4.88939">
        <ele>277.96</ele>
        <time>2012-05-05T14:46:14Z</time>
      </trkpt>
      <trkpt lat="44.7559" lon="4.88915">
        <ele>277.96</ele>
        <time>2012-05-05T14:46:19Z</time>
      </trkpt>
      <trkpt lat="44.756" lon="4.88879">
        <ele>277.48</ele>
        <time>2012-05-05T14:46:26Z</time>
      </trkpt>
      <trkpt lat="44.75616" lon="4.88823">
        <ele>277.96</ele>
        <time>2012-05-05T14:46:37Z</time>
      </trkpt>
      <trkpt lat="44.75623" lon="4.88803">
        <ele>276.52</ele>
        <time>2012-05-05T14:46:41Z</time>
      </trkpt>
      <trkpt lat="44.75646" lon="4.88773">
        <ele>278.44</ele>
        <time>2012-05-05T14:46:51Z</time>
      </trkpt>
      <trkpt lat="44.75676" lon="4.88737">
        <ele>276.52</ele>
        <time>2012-05-05T14:47:02Z</time>
      </trkpt>
      <trkpt lat="44.757" lon="4.88693">
        <ele>276.52</ele>
        <time>2012-05-05T14:47:12Z</time>
      </trkpt>
      <trkpt lat="44.75714" lon="4.88672">
        <ele>276.04</ele>
        <time>2012-05-05T14:47:17Z</time>
      </trkpt>
      <trkpt lat="44.75727" lon="4.8865">
        <ele>276.04</ele>
        <time>2012-05-05T14:47:22Z</time>
      </trkpt>
      <trkpt lat="44.75748" lon="4.88615">
        <ele>276.52</ele>
        <time>2012-05-05T14:47:30Z</time>
      </trkpt>
      <trkpt lat="44.75763" lon="4.88592">
        <ele>275.56</ele>
        <time>2012-05-05T14:47:35Z</time>
      </trkpt>
      <trkpt lat="44.75788" lon="4.88554">
        <ele>275.56</ele>
        <time>2012-05-05T14:47:45Z</time>
      </trkpt>
      <trkpt lat="44.75812" lon="4.8851">
        <ele>274.59</ele>
        <time>2012-05-05T14:47:55Z</time>
      </trkpt>
      <trkpt lat="44.75838" lon="4.88449">
        <ele>276.04</ele>
        <time>2012-05-05T14:48:07Z</time>
      </trkpt>
      <trkpt lat="44.75845" lon="4.88389">
        <ele>275.07</ele>
        <time>2012-05-05T14:48:17Z</time>
      </trkpt>
      <trkpt lat="44.75846" lon="4.88383">
        <ele>275.07</ele>
        <time>2012-05-05T14:48:18Z</time>
      </trkpt>
      <trkpt lat="44.75847" lon="4.88353">
        <ele>274.11</ele>
        <time>2012-05-05T14:48:23Z</time>
      </trkpt>
      <trkpt lat="44.75848" lon="4.88341">
        <ele>274.59</ele>
        <time>2012-05-05T14:48:25Z</time>
      </trkpt>
      <trkpt lat="44.7586" lon="4.8825">
        <ele>274.11</ele>
        <time>2012-05-05T14:48:40Z</time>
      </trkpt>
      <trkpt lat="44.75883" lon="4.88197">
        <ele>274.11</ele>
        <time>2012-05-05T14:48:51Z</time>
      </trkpt>
      <trkpt lat="44.75891" lon="4.88183">
        <ele>274.11</ele>
        <time>2012-05-05T14:48:54Z</time>
      </trkpt>
      <trkpt lat="44.75907" lon="4.88152">
        <ele>274.59</ele>
        <time>2012-05-05T14:49:00Z</time>
      </trkpt>
      <trkpt lat="44.75917" lon="4.88132">
        <ele>274.59</ele>
        <time>2012-05-05T14:49:04Z</time>
      </trkpt>
      <trkpt lat="44.75924" lon="4.88116">
        <ele>272.67</ele>
        <time>2012-05-05T14:49:07Z</time>
      </trkpt>
      <trkpt lat="44.75944" lon="4.88075">
        <ele>272.19</ele>
        <time>2012-05-05T14:49:14Z</time>
      </trkpt>
      <trkpt lat="44.75966" lon="4.88032">
        <ele>272.67</ele>
        <time>2012-05-05T14:49:21Z</time>
      </trkpt>
      <trkpt lat="44.75996" lon="4.87971">
        <ele>273.63</ele>
        <time>2012-05-05T14:49:33Z</time>
      </trkpt>
      <trkpt lat="44.76001" lon="4.8795">
        <ele>272.67</ele>
        <time>2012-05-05T14:49:42Z</time>
      </trkpt>
      <trkpt lat="44.76002" lon="4.87947">
        <ele>272.67</ele>
        <time>2012-05-05T14:50:02Z</time>
      </trkpt>
      <trkpt lat="44.76005" lon="4.87942">
        <ele>273.15</ele>
        <time>2012-05-05T14:50:11Z</time>
      </trkpt>
      <trkpt lat="44.76018" lon="4.87911">
        <ele>272.19</ele>
        <time>2012-05-05T14:50:21Z</time>
      </trkpt>
      <trkpt lat="44.76024" lon="4.87896">
        <ele>272.19</ele>
        <time>2012-05-05T14:50:25Z</time>
      </trkpt>
      <trkpt lat="44.76029" lon="4.87873">
        <ele>272.19</ele>
        <time>2012-05-05T14:50:34Z</time>
      </trkpt>
      <trkpt lat="44.76035" lon="4.87851">
        <ele>272.67</ele>
        <time>2012-05-05T14:50:42Z</time>
      </trkpt>
      <trkpt lat="44.76034" lon="4.87844">
        <ele>272.19</ele>
        <time>2012-05-05T14:50:44Z</time>
      </trkpt>
      <trkpt lat="44.76034" lon="4.87827">
        <ele>272.19</ele>
        <time>2012-05-05T14:50:48Z</time>
      </trkpt>
      <trkpt lat="44.76043" lon="4.87811">
        <ele>272.19</ele>
        <time>2012-05-05T14:50:52Z</time>
      </trkpt>
      <trkpt lat="44.76049" lon="4.8779">
        <ele>271.23</ele>
        <time>2012-05-05T14:50:57Z</time>
      </trkpt>
      <trkpt lat="44.7606" lon="4.87743">
        <ele>269.79</ele>
        <time>2012-05-05T14:51:07Z</time>
      </trkpt>
      <trkpt lat="44.76064" lon="4.87692">
        <ele>270.75</ele>
        <time>2012-05-05T14:51:15Z</time>
      </trkpt>
      <trkpt lat="44.76071" lon="4.87643">
        <ele>270.75</ele>
        <time>2012-05-05T14:51:23Z</time>
      </trkpt>
      <trkpt lat="44.76077" lon="4.87622">
        <ele>270.75</ele>
        <time>2012-05-05T14:51:27Z</time>
      </trkpt>
      <trkpt lat="44.76089" lon="4.87577">
        <ele>270.27</ele>
        <time>2012-05-05T14:51:36Z</time>
      </trkpt>
      <trkpt lat="44.76091" lon="4.8754">
        <ele>269.31</ele>
        <time>2012-05-05T14:51:43Z</time>
      </trkpt>
      <trkpt lat="44.76096" lon="4.875">
        <ele>269.79</ele>
        <time>2012-05-05T14:51:51Z</time>
      </trkpt>
      <trkpt lat="44.76095" lon="4.87495">
        <ele>269.79</ele>
        <time>2012-05-05T14:51:52Z</time>
      </trkpt>
      <trkpt lat="44.76081" lon="4.8747">
        <ele>269.79</ele>
        <time>2012-05-05T14:51:59Z</time>
      </trkpt>
      <trkpt lat="44.76074" lon="4.87459">
        <ele>269.79</ele>
        <time>2012-05-05T14:52:02Z</time>
      </trkpt>
      <trkpt lat="44.76065" lon="4.87453">
        <ele>269.31</ele>
        <time>2012-05-05T14:52:05Z</time>
      </trkpt>
      <trkpt lat="44.76053" lon="4.87423">
        <ele>270.27</ele>
        <time>2012-05-05T14:52:13Z</time>
      </trkpt>
      <trkpt lat="44.76044" lon="4.87405">
        <ele>269.31</ele>
        <time>2012-05-05T14:52:17Z</time>
      </trkpt>
      <trkpt lat="44.76038" lon="4.87376">
        <ele>269.31</ele>
        <time>2012-05-05T14:52:22Z</time>
      </trkpt>
      <trkpt lat="44.76032" lon="4.87329">
        <ele>268.35</ele>
        <time>2012-05-05T14:52:29Z</time>
      </trkpt>
      <trkpt lat="44.76024" lon="4.87256">
        <ele>268.83</ele>
        <time>2012-05-05T14:52:39Z</time>
      </trkpt>
      <trkpt lat="44.76029" lon="4.87225">
        <ele>267.38</ele>
        <time>2012-05-05T14:52:43Z</time>
      </trkpt>
      <trkpt lat="44.76048" lon="4.8719">
        <ele>266.42</ele>
        <time>2012-05-05T14:52:50Z</time>
      </trkpt>
      <trkpt lat="44.76061" lon="4.87174">
        <ele>266.9</ele>
        <time>2012-05-05T14:52:54Z</time>
      </trkpt>
      <trkpt lat="44.76086" lon="4.87145">
        <ele>267.38</ele>
        <time>2012-05-05T14:53:02Z</time>
      </trkpt>
      <trkpt lat="44.76091" lon="4.87114">
        <ele>267.38</ele>
        <time>2012-05-05T14:53:10Z</time>
      </trkpt>
      <trkpt lat="44.7609" lon="4.87098">
        <ele>267.38</ele>
        <time>2012-05-05T14:53:13Z</time>
      </trkpt>
      <trkpt lat="44.7609" lon="4.87083">
        <ele>267.38</ele>
        <time>2012-05-05T14:53:16Z</time>
      </trkpt>
      <trkpt lat="44.76069" lon="4.87066">
        <ele>267.38</ele>
        <time>2012-05-05T14:53:25Z</time>
      </trkpt>
      <trkpt lat="44.76061" lon="4.87059">
        <ele>267.38</ele>
        <time>2012-05-05T14:53:28Z</time>
      </trkpt>
      <trkpt lat="44.76054" lon="4.87054">
        <ele>268.35</ele>
        <time>2012-05-05T14:53:32Z</time>
      </trkpt>
      <trkpt lat="44.76057" lon="4.8703">
        <ele>267.86</ele>
        <time>2012-05-05T14:53:39Z</time>
      </trkpt>
      <trkpt lat="44.76044" lon="4.87015">
        <ele>267.38</ele>
        <time>2012-05-05T14:53:46Z</time>
      </trkpt>
      <trkpt lat="44.76043" lon="4.87013">
        <ele>266.9</ele>
        <time>2012-05-05T14:53:47Z</time>
      </trkpt>
      <trkpt lat="44.76039" lon="4.86994">
        <ele>266.9</ele>
        <time>2012-05-05T14:53:54Z</time>
      </trkpt>
      <trkpt lat="44.76057" lon="4.86932">
        <ele>265.94</ele>
        <time>2012-05-05T14:54:05Z</time>
      </trkpt>
      <trkpt lat="44.76065" lon="4.86907">
        <ele>265.46</ele>
        <time>2012-05-05T14:54:09Z</time>
      </trkpt>
      <trkpt lat="44.76071" lon="4.8689">
        <ele>266.42</ele>
        <time>2012-05-05T14:54:12Z</time>
      </trkpt>
      <trkpt lat="44.76079" lon="4.86864">
        <ele>264.5</ele>
        <time>2012-05-05T14:54:16Z</time>
      </trkpt>
      <trkpt lat="44.76081" lon="4.86858">
        <ele>265.46</ele>
        <time>2012-05-05T14:54:17Z</time>
      </trkpt>
      <trkpt lat="44.76089" lon="4.86839">
        <ele>263.54</ele>
        <time>2012-05-05T14:54:20Z</time>
      </trkpt>
      <trkpt lat="44.76101" lon="4.8681">
        <ele>264.98</ele>
        <time>2012-05-05T14:54:26Z</time>
      </trkpt>
      <trkpt lat="44.76118" lon="4.86767">
        <ele>264.02</ele>
        <time>2012-05-05T14:54:34Z</time>
      </trkpt>
      <trkpt lat="44.76123" lon="4.86757">
        <ele>264.02</ele>
        <time>2012-05-05T14:54:36Z</time>
      </trkpt>
      <trkpt lat="44.76128" lon="4.86714">
        <ele>264.98</ele>
        <time>2012-05-05T14:54:46Z</time>
      </trkpt>
      <trkpt lat="44.76129" lon="4.86711">
        <ele>264.5</ele>
        <time>2012-05-05T14:54:47Z</time>
      </trkpt>
      <trkpt lat="44.76131" lon="4.86708">
        <ele>264.5</ele>
        <time>2012-05-05T14:54:49Z</time>
      </trkpt>
      <trkpt lat="44.76139" lon="4.86659">
        <ele>263.06</ele>
        <time>2012-05-05T14:55:00Z</time>
      </trkpt>
      <trkpt lat="44.76147" lon="4.86599">
        <ele>262.1</ele>
        <time>2012-05-05T14:55:08Z</time>
      </trkpt>
      <trkpt lat="44.76152" lon="4.86574">
        <ele>263.06</ele>
        <time>2012-05-05T14:55:15Z</time>
      </trkpt>
      <trkpt lat="44.76158" lon="4.86545">
        <ele>262.58</ele>
        <time>2012-05-05T14:55:24Z</time>
      </trkpt>
      <trkpt lat="44.7616" lon="4.8653">
        <ele>262.1</ele>
        <time>2012-05-05T14:55:29Z</time>
      </trkpt>
      <trkpt lat="44.76163" lon="4.86501">
        <ele>261.14</ele>
        <time>2012-05-05T14:55:37Z</time>
      </trkpt>
      <trkpt lat="44.76168" lon="4.86474">
        <ele>262.58</ele>
        <time>2012-05-05T14:55:46Z</time>
      </trkpt>
      <trkpt lat="44.76171" lon="4.86449">
        <ele>262.1</ele>
        <time>2012-05-05T14:56:03Z</time>
      </trkpt>
      <trkpt lat="44.76171" lon="4.86443">
        <ele>263.06</ele>
        <time>2012-05-05T14:56:05Z</time>
      </trkpt>
      <trkpt lat="44.76171" lon="4.86427">
        <ele>264.02</ele>
        <time>2012-05-05T14:56:09Z</time>
      </trkpt>
      <trkpt lat="44.76173" lon="4.8638">
        <ele>264.02</ele>
        <time>2012-05-05T14:56:19Z</time>
      </trkpt>
      <trkpt lat="44.76175" lon="4.8632">
        <ele>264.02</ele>
        <time>2012-05-05T14:56:30Z</time>
      </trkpt>
      <trkpt lat="44.76178" lon="4.86259">
        <ele>264.02</ele>
        <time>2012-05-05T14:56:42Z</time>
      </trkpt>
      <trkpt lat="44.76184" lon="4.86199">
        <ele>262.58</ele>
        <time>2012-05-05T14:56:54Z</time>
      </trkpt>
      <trkpt lat="44.76184" lon="4.86193">
        <ele>263.06</ele>
        <time>2012-05-05T14:56:55Z</time>
      </trkpt>
      <trkpt lat="44.76183" lon="4.86138">
        <ele>262.58</ele>
        <time>2012-05-05T14:57:05Z</time>
      </trkpt>
      <trkpt lat="44.76184" lon="4.86132">
        <ele>263.54</ele>
        <time>2012-05-05T14:57:06Z</time>
      </trkpt>
      <trkpt lat="44.76194" lon="4.86116">
        <ele>262.58</ele>
        <time>2012-05-05T14:57:10Z</time>
      </trkpt>
      <trkpt lat="44.76246" lon="4.86118">
        <ele>264.02</ele>
        <time>2012-05-05T14:57:24Z</time>
      </trkpt>
      <trkpt lat="44.76267" lon="4.86118">
        <ele>262.58</ele>
        <time>2012-05-05T14:57:31Z</time>
      </trkpt>
      <trkpt lat="44.7627" lon="4.86109">
        <ele>264.5</ele>
        <time>2012-05-05T14:57:35Z</time>
      </trkpt>
      <trkpt lat="44.76256" lon="4.86074">
        <ele>264.98</ele>
        <time>2012-05-05T14:57:46Z</time>
      </trkpt>
      <trkpt lat="44.76245" lon="4.86063">
        <ele>264.5</ele>
        <time>2012-05-05T14:57:50Z</time>
      </trkpt>
      <trkpt lat="44.76238" lon="4.86026">
        <ele>264.5</ele>
        <time>2012-05-05T14:57:59Z</time>
      </trkpt>
      <trkpt lat="44.76237" lon="4.86017">
        <ele>264.5</ele>
        <time>2012-05-05T14:58:01Z</time>
      </trkpt>
      <trkpt lat="44.76227" lon="4.85979">
        <ele>262.58</ele>
        <time>2012-05-05T14:58:10Z</time>
      </trkpt>
      <trkpt lat="44.76224" lon="4.85924">
        <ele>262.1</ele>
        <time>2012-05-05T14:58:20Z</time>
      </trkpt>
      <trkpt lat="44.76224" lon="4.859">
        <ele>262.58</ele>
        <time>2012-05-05T14:58:25Z</time>
      </trkpt>
      <trkpt lat="44.76221" lon="4.85882">
        <ele>262.1</ele>
        <time>2012-05-05T14:58:29Z</time>
      </trkpt>
      <trkpt lat="44.76221" lon="4.85867">
        <ele>261.62</ele>
        <time>2012-05-05T14:58:32Z</time>
      </trkpt>
      <trkpt lat="44.76224" lon="4.85851">
        <ele>262.58</ele>
        <time>2012-05-05T14:58:37Z</time>
      </trkpt>
      <trkpt lat="44.76226" lon="4.85848">
        <ele>263.06</ele>
        <time>2012-05-05T14:58:39Z</time>
      </trkpt>
      <trkpt lat="44.76224" lon="4.85817">
        <ele>264.02</ele>
        <time>2012-05-05T14:58:48Z</time>
      </trkpt>
      <trkpt lat="44.76222" lon="4.85793">
        <ele>263.54</ele>
        <time>2012-05-05T14:58:53Z</time>
      </trkpt>
      <trkpt lat="44.76222" lon="4.85775">
        <ele>263.54</ele>
        <time>2012-05-05T14:58:56Z</time>
      </trkpt>
      <trkpt lat="44.76213" lon="4.85734">
        <ele>263.06</ele>
        <time>2012-05-05T14:59:03Z</time>
      </trkpt>
      <trkpt lat="44.76204" lon="4.85704">
        <ele>262.1</ele>
        <time>2012-05-05T14:59:08Z</time>
      </trkpt>
      <trkpt lat="44.76199" lon="4.8568">
        <ele>262.1</ele>
        <time>2012-05-05T14:59:12Z</time>
      </trkpt>
      <trkpt lat="44.76194" lon="4.85643">
        <ele>262.1</ele>
        <time>2012-05-05T14:59:18Z</time>
      </trkpt>
      <trkpt lat="44.76185" lon="4.85564">
        <ele>261.62</ele>
        <time>2012-05-05T14:59:29Z</time>
      </trkpt>
      <trkpt lat="44.76182" lon="4.85535">
        <ele>262.58</ele>
        <time>2012-05-05T14:59:33Z</time>
      </trkpt>
      <trkpt lat="44.76179" lon="4.85513">
        <ele>262.1</ele>
        <time>2012-05-05T14:59:36Z</time>
      </trkpt>
      <trkpt lat="44.76178" lon="4.85499">
        <ele>261.62</ele>
        <time>2012-05-05T14:59:38Z</time>
      </trkpt>
      <trkpt lat="44.76177" lon="4.85485">
        <ele>262.1</ele>
        <time>2012-05-05T14:59:40Z</time>
      </trkpt>
      <trkpt lat="44.76174" lon="4.85457">
        <ele>263.06</ele>
        <time>2012-05-05T14:59:44Z</time>
      </trkpt>
      <trkpt lat="44.76174" lon="4.85451">
        <ele>262.58</ele>
        <time>2012-05-05T14:59:45Z</time>
      </trkpt>
      <trkpt lat="44.76167" lon="4.85355">
        <ele>262.1</ele>
        <time>2012-05-05T14:59:59Z</time>
      </trkpt>
      <trkpt lat="44.76167" lon="4.85335">
        <ele>261.14</ele>
        <time>2012-05-05T15:00:02Z</time>
      </trkpt>
      <trkpt lat="44.76177" lon="4.85251">
        <ele>261.14</ele>
        <time>2012-05-05T15:00:14Z</time>
      </trkpt>
      <trkpt lat="44.76182" lon="4.85218">
        <ele>261.62</ele>
        <time>2012-05-05T15:00:19Z</time>
      </trkpt>
      <trkpt lat="44.76184" lon="4.85198">
        <ele>261.62</ele>
        <time>2012-05-05T15:00:22Z</time>
      </trkpt>
      <trkpt lat="44.76187" lon="4.85178">
        <ele>261.62</ele>
        <time>2012-05-05T15:00:25Z</time>
      </trkpt>
      <trkpt lat="44.76188" lon="4.85159">
        <ele>261.62</ele>
        <time>2012-05-05T15:00:28Z</time>
      </trkpt>
      <trkpt lat="44.76181" lon="4.85126">
        <ele>259.21</ele>
        <time>2012-05-05T15:00:32Z</time>
      </trkpt>
      <trkpt lat="44.76181" lon="4.85106">
        <ele>258.73</ele>
        <time>2012-05-05T15:00:35Z</time>
      </trkpt>
      <trkpt lat="44.76183" lon="4.85094">
        <ele>258.25</ele>
        <time>2012-05-05T15:00:37Z</time>
      </trkpt>
      <trkpt lat="44.76187" lon="4.85068">
        <ele>258.25</ele>
        <time>2012-05-05T15:00:41Z</time>
      </trkpt>
      <trkpt lat="44.76188" lon="4.85049">
        <ele>259.21</ele>
        <time>2012-05-05T15:00:44Z</time>
      </trkpt>
      <trkpt lat="44.76189" lon="4.85035">
        <ele>259.69</ele>
        <time>2012-05-05T15:00:46Z</time>
      </trkpt>
      <trkpt lat="44.7619" lon="4.85022">
        <ele>259.21</ele>
        <time>2012-05-05T15:00:48Z</time>
      </trkpt>
      <trkpt lat="44.76192" lon="4.84995">
        <ele>259.69</ele>
        <time>2012-05-05T15:00:52Z</time>
      </trkpt>
      <trkpt lat="44.76194" lon="4.8498">
        <ele>259.69</ele>
        <time>2012-05-05T15:00:54Z</time>
      </trkpt>
      <trkpt lat="44.76201" lon="4.84954">
        <ele>259.21</ele>
        <time>2012-05-05T15:00:58Z</time>
      </trkpt>
      <trkpt lat="44.76215" lon="4.84906">
        <ele>259.21</ele>
        <time>2012-05-05T15:01:06Z</time>
      </trkpt>
      <trkpt lat="44.76228" lon="4.84871">
        <ele>257.77</ele>
        <time>2012-05-05T15:01:13Z</time>
      </trkpt>
      <trkpt lat="44.76234" lon="4.84861">
        <ele>258.73</ele>
        <time>2012-05-05T15:01:15Z</time>
      </trkpt>
      <trkpt lat="44.76242" lon="4.84839">
        <ele>257.77</ele>
        <time>2012-05-05T15:01:19Z</time>
      </trkpt>
      <trkpt lat="44.76246" lon="4.8483">
        <ele>258.73</ele>
        <time>2012-05-05T15:01:21Z</time>
      </trkpt>
      <trkpt lat="44.76248" lon="4.84797">
        <ele>258.73</ele>
        <time>2012-05-05T15:01:29Z</time>
      </trkpt>
      <trkpt lat="44.7625" lon="4.84791">
        <ele>258.25</ele>
        <time>2012-05-05T15:01:30Z</time>
      </trkpt>
      <trkpt lat="44.76263" lon="4.8476">
        <ele>258.25</ele>
        <time>2012-05-05T15:01:36Z</time>
      </trkpt>
      <trkpt lat="44.76279" lon="4.84716">
        <ele>258.73</ele>
        <time>2012-05-05T15:01:44Z</time>
      </trkpt>
      <trkpt lat="44.76287" lon="4.84704">
        <ele>257.77</ele>
        <time>2012-05-05T15:01:47Z</time>
      </trkpt>
      <trkpt lat="44.7631" lon="4.84689">
        <ele>258.73</ele>
        <time>2012-05-05T15:01:54Z</time>
      </trkpt>
      <trkpt lat="44.76327" lon="4.84667">
        <ele>259.69</ele>
        <time>2012-05-05T15:02:00Z</time>
      </trkpt>
      <trkpt lat="44.76341" lon="4.84644">
        <ele>258.73</ele>
        <time>2012-05-05T15:02:05Z</time>
      </trkpt>
      <trkpt lat="44.76375" lon="4.84607">
        <ele>258.25</ele>
        <time>2012-05-05T15:02:15Z</time>
      </trkpt>
      <trkpt lat="44.76383" lon="4.84603">
        <ele>258.25</ele>
        <time>2012-05-05T15:02:17Z</time>
      </trkpt>
      <trkpt lat="44.76403" lon="4.84593">
        <ele>258.73</ele>
        <time>2012-05-05T15:02:21Z</time>
      </trkpt>
      <trkpt lat="44.7643" lon="4.84569">
        <ele>257.77</ele>
        <time>2012-05-05T15:02:27Z</time>
      </trkpt>
      <trkpt lat="44.76446" lon="4.84548">
        <ele>258.25</ele>
        <time>2012-05-05T15:02:32Z</time>
      </trkpt>
      <trkpt lat="44.76465" lon="4.84516">
        <ele>257.77</ele>
        <time>2012-05-05T15:02:39Z</time>
      </trkpt>
      <trkpt lat="44.76481" lon="4.84496">
        <ele>258.25</ele>
        <time>2012-05-05T15:02:44Z</time>
      </trkpt>
      <trkpt lat="44.76499" lon="4.84493">
        <ele>257.29</ele>
        <time>2012-05-05T15:02:48Z</time>
      </trkpt>
      <trkpt lat="44.76532" lon="4.84478">
        <ele>257.29</ele>
        <time>2012-05-05T15:02:56Z</time>
      </trkpt>
      <trkpt lat="44.76536" lon="4.84468">
        <ele>258.25</ele>
        <time>2012-05-05T15:02:58Z</time>
      </trkpt>
      <trkpt lat="44.76537" lon="4.84451">
        <ele>256.33</ele>
        <time>2012-05-05T15:03:01Z</time>
      </trkpt>
      <trkpt lat="44.7655" lon="4.84424">
        <ele>256.81</ele>
        <time>2012-05-05T15:03:09Z</time>
      </trkpt>
      <trkpt lat="44.76559" lon="4.84401">
        <ele>256.81</ele>
        <time>2012-05-05T15:03:16Z</time>
      </trkpt>
      <trkpt lat="44.76574" lon="4.84347">
        <ele>257.77</ele>
        <time>2012-05-05T15:03:28Z</time>
      </trkpt>
      <trkpt lat="44.76585" lon="4.84292">
        <ele>258.25</ele>
        <time>2012-05-05T15:03:38Z</time>
      </trkpt>
      <trkpt lat="44.76588" lon="4.84272">
        <ele>258.25</ele>
        <time>2012-05-05T15:03:42Z</time>
      </trkpt>
      <trkpt lat="44.76589" lon="4.84264">
        <ele>258.25</ele>
        <time>2012-05-05T15:03:44Z</time>
      </trkpt>
      <trkpt lat="44.76593" lon="4.84229">
        <ele>259.21</ele>
        <time>2012-05-05T15:03:52Z</time>
      </trkpt>
      <trkpt lat="44.76595" lon="4.84174">
        <ele>259.69</ele>
        <time>2012-05-05T15:04:03Z</time>
      </trkpt>
      <trkpt lat="44.76597" lon="4.8416">
        <ele>259.21</ele>
        <time>2012-05-05T15:04:06Z</time>
      </trkpt>
      <trkpt lat="44.76601" lon="4.84108">
        <ele>260.17</ele>
        <time>2012-05-05T15:04:18Z</time>
      </trkpt>
      <trkpt lat="44.76604" lon="4.84091">
        <ele>260.17</ele>
        <time>2012-05-05T15:04:23Z</time>
      </trkpt>
      <trkpt lat="44.76616" lon="4.84056">
        <ele>263.06</ele>
        <time>2012-05-05T15:04:35Z</time>
      </trkpt>
      <trkpt lat="44.76634" lon="4.84051">
        <ele>264.98</ele>
        <time>2012-05-05T15:04:46Z</time>
      </trkpt>
      <trkpt lat="44.76642" lon="4.84042">
        <ele>264.5</ele>
        <time>2012-05-05T15:04:51Z</time>
      </trkpt>
      <trkpt lat="44.76648" lon="4.84039">
        <ele>264.02</ele>
        <time>2012-05-05T15:05:02Z</time>
      </trkpt>
      <trkpt lat="44.76648" lon="4.84039">
        <ele>264.5</ele>
        <time>2012-05-05T15:05:16Z</time>
      </trkpt>
      <trkpt lat="44.76648" lon="4.84039">
        <ele>264.98</ele>
        <time>2012-05-05T15:05:42Z</time>
      </trkpt>
      <trkpt lat="44.76665" lon="4.84039">
        <ele>264.02</ele>
        <time>2012-05-05T15:05:53Z</time>
      </trkpt>
      <trkpt lat="44.76679" lon="4.84043">
        <ele>262.58</ele>
        <time>2012-05-05T15:05:56Z</time>
      </trkpt>
      <trkpt lat="44.76695" lon="4.84045">
        <ele>263.54</ele>
        <time>2012-05-05T15:05:59Z</time>
      </trkpt>
      <trkpt lat="44.76706" lon="4.84048">
        <ele>263.06</ele>
        <time>2012-05-05T15:06:01Z</time>
      </trkpt>
      <trkpt lat="44.76743" lon="4.84061">
        <ele>260.65</ele>
        <time>2012-05-05T15:06:07Z</time>
      </trkpt>
      <trkpt lat="44.76749" lon="4.84063">
        <ele>261.62</ele>
        <time>2012-05-05T15:06:08Z</time>
      </trkpt>
      <trkpt lat="44.76762" lon="4.84067">
        <ele>261.14</ele>
        <time>2012-05-05T15:06:10Z</time>
      </trkpt>
      <trkpt lat="44.76864" lon="4.84105">
        <ele>258.25</ele>
        <time>2012-05-05T15:06:24Z</time>
      </trkpt>
      <trkpt lat="44.76944" lon="4.84137">
        <ele>259.69</ele>
        <time>2012-05-05T15:06:36Z</time>
      </trkpt>
      <trkpt lat="44.77033" lon="4.84172">
        <ele>259.21</ele>
        <time>2012-05-05T15:06:50Z</time>
      </trkpt>
      <trkpt lat="44.77111" lon="4.842">
        <ele>260.65</ele>
        <time>2012-05-05T15:07:02Z</time>
      </trkpt>
      <trkpt lat="44.77166" lon="4.84224">
        <ele>260.17</ele>
        <time>2012-05-05T15:07:13Z</time>
      </trkpt>
      <trkpt lat="44.77172" lon="4.84229">
        <ele>261.62</ele>
        <time>2012-05-05T15:07:16Z</time>
      </trkpt>
      <trkpt lat="44.77182" lon="4.84241">
        <ele>260.65</ele>
        <time>2012-05-05T15:07:21Z</time>
      </trkpt>
      <trkpt lat="44.77188" lon="4.8425">
        <ele>262.1</ele>
        <time>2012-05-05T15:07:23Z</time>
      </trkpt>
      <trkpt lat="44.77213" lon="4.8429">
        <ele>263.54</ele>
        <time>2012-05-05T15:07:31Z</time>
      </trkpt>
      <trkpt lat="44.77268" lon="4.84379">
        <ele>259.69</ele>
        <time>2012-05-05T15:07:45Z</time>
      </trkpt>
      <trkpt lat="44.77293" lon="4.84415">
        <ele>259.69</ele>
        <time>2012-05-05T15:07:53Z</time>
      </trkpt>
      <trkpt lat="44.77295" lon="4.84418">
        <ele>258.73</ele>
        <time>2012-05-05T15:07:57Z</time>
      </trkpt>
      <trkpt lat="44.77306" lon="4.84408">
        <ele>258.25</ele>
        <time>2012-05-05T15:08:04Z</time>
      </trkpt>
      <trkpt lat="44.77311" lon="4.84397">
        <ele>258.25</ele>
        <time>2012-05-05T15:08:06Z</time>
      </trkpt>
      <trkpt lat="44.77316" lon="4.84384">
        <ele>258.73</ele>
        <time>2012-05-05T15:08:08Z</time>
      </trkpt>
      <trkpt lat="44.77357" lon="4.84279">
        <ele>256.81</ele>
        <time>2012-05-05T15:08:22Z</time>
      </trkpt>
      <trkpt lat="44.77375" lon="4.84231">
        <ele>256.33</ele>
        <time>2012-05-05T15:08:28Z</time>
      </trkpt>
      <trkpt lat="44.77407" lon="4.84149">
        <ele>255.37</ele>
        <time>2012-05-05T15:08:39Z</time>
      </trkpt>
      <trkpt lat="44.7741" lon="4.84143">
        <ele>255.37</ele>
        <time>2012-05-05T15:08:40Z</time>
      </trkpt>
      <trkpt lat="44.77412" lon="4.84136">
        <ele>256.33</ele>
        <time>2012-05-05T15:08:41Z</time>
      </trkpt>
      <trkpt lat="44.77414" lon="4.84129">
        <ele>256.33</ele>
        <time>2012-05-05T15:08:42Z</time>
      </trkpt>
      <trkpt lat="44.77416" lon="4.84122">
        <ele>255.85</ele>
        <time>2012-05-05T15:08:43Z</time>
      </trkpt>
      <trkpt lat="44.77419" lon="4.84114">
        <ele>255.85</ele>
        <time>2012-05-05T15:08:44Z</time>
      </trkpt>
      <trkpt lat="44.77421" lon="4.84107">
        <ele>255.85</ele>
        <time>2012-05-05T15:08:45Z</time>
      </trkpt>
      <trkpt lat="44.77424" lon="4.84101">
        <ele>255.37</ele>
        <time>2012-05-05T15:08:46Z</time>
      </trkpt>
      <trkpt lat="44.77472" lon="4.83976">
        <ele>255.85</ele>
        <time>2012-05-05T15:09:03Z</time>
      </trkpt>
      <trkpt lat="44.77515" lon="4.83862">
        <ele>255.37</ele>
        <time>2012-05-05T15:09:18Z</time>
      </trkpt>
      <trkpt lat="44.77559" lon="4.83749">
        <ele>255.37</ele>
        <time>2012-05-05T15:09:33Z</time>
      </trkpt>
      <trkpt lat="44.77571" lon="4.8372">
        <ele>255.37</ele>
        <time>2012-05-05T15:09:37Z</time>
      </trkpt>
      <trkpt lat="44.77619" lon="4.83626">
        <ele>255.37</ele>
        <time>2012-05-05T15:09:51Z</time>
      </trkpt>
      <trkpt lat="44.77678" lon="4.83509">
        <ele>253.93</ele>
        <time>2012-05-05T15:10:08Z</time>
      </trkpt>
      <trkpt lat="44.77706" lon="4.8342">
        <ele>252.48</ele>
        <time>2012-05-05T15:10:20Z</time>
      </trkpt>
      <trkpt lat="44.77729" lon="4.83339">
        <ele>252.48</ele>
        <time>2012-05-05T15:10:31Z</time>
      </trkpt>
      <trkpt lat="44.77768" lon="4.83265">
        <ele>252.48</ele>
        <time>2012-05-05T15:10:43Z</time>
      </trkpt>
      <trkpt lat="44.77788" lon="4.83217">
        <ele>251.52</ele>
        <time>2012-05-05T15:10:51Z</time>
      </trkpt>
      <trkpt lat="44.77811" lon="4.83177">
        <ele>251.52</ele>
        <time>2012-05-05T15:10:58Z</time>
      </trkpt>
      <trkpt lat="44.77866" lon="4.8306">
        <ele>251.52</ele>
        <time>2012-05-05T15:11:15Z</time>
      </trkpt>
      <trkpt lat="44.77871" lon="4.83045">
        <ele>252</ele>
        <time>2012-05-05T15:11:17Z</time>
      </trkpt>
      <trkpt lat="44.77905" lon="4.83035">
        <ele>252.48</ele>
        <time>2012-05-05T15:11:24Z</time>
      </trkpt>
      <trkpt lat="44.77937" lon="4.83059">
        <ele>252.96</ele>
        <time>2012-05-05T15:11:31Z</time>
      </trkpt>
      <trkpt lat="44.77945" lon="4.83066">
        <ele>253.93</ele>
        <time>2012-05-05T15:11:33Z</time>
      </trkpt>
      <trkpt lat="44.77959" lon="4.83067">
        <ele>254.41</ele>
        <time>2012-05-05T15:11:40Z</time>
      </trkpt>
      <trkpt lat="44.77961" lon="4.83065">
        <ele>255.37</ele>
        <time>2012-05-05T15:11:47Z</time>
      </trkpt>
      <trkpt lat="44.77963" lon="4.83059">
        <ele>254.41</ele>
        <time>2012-05-05T15:11:53Z</time>
      </trkpt>
      <trkpt lat="44.77966" lon="4.83055">
        <ele>254.89</ele>
        <time>2012-05-05T15:12:00Z</time>
      </trkpt>
      <trkpt lat="44.77991" lon="4.8307">
        <ele>253.44</ele>
        <time>2012-05-05T15:12:16Z</time>
      </trkpt>
      <trkpt lat="44.77997" lon="4.83077">
        <ele>254.41</ele>
        <time>2012-05-05T15:12:22Z</time>
      </trkpt>
      <trkpt lat="44.77997" lon="4.83078">
        <ele>254.41</ele>
        <time>2012-05-05T15:12:34Z</time>
      </trkpt>
      <trkpt lat="44.77997" lon="4.83078">
        <ele>253.93</ele>
        <time>2012-05-05T15:12:38Z</time>
      </trkpt>
      <trkpt lat="44.77997" lon="4.83078">
        <ele>256.33</ele>
        <time>2012-05-05T15:12:45Z</time>
      </trkpt>
      <trkpt lat="44.77997" lon="4.83078">
        <ele>259.69</ele>
        <time>2012-05-05T15:12:48Z</time>
      </trkpt>
      <trkpt lat="44.77997" lon="4.83078">
        <ele>259.69</ele>
        <time>2012-05-05T15:12:49Z</time>
      </trkpt>
      <trkpt lat="44.77997" lon="4.83078">
        <ele>259.69</ele>
        <time>2012-05-05T15:12:52Z</time>
      </trkpt>
      <trkpt lat="44.77999" lon="4.8307">
        <ele>260.17</ele>
        <time>2012-05-05T15:12:58Z</time>
      </trkpt>
      <trkpt lat="44.78" lon="4.83065">
        <ele>260.17</ele>
        <time>2012-05-05T15:13:12Z</time>
      </trkpt>
      <trkpt lat="44.78" lon="4.83064">
        <ele>259.21</ele>
        <time>2012-05-05T15:13:21Z</time>
      </trkpt>
      <trkpt lat="44.78" lon="4.83064">
        <ele>255.85</ele>
        <time>2012-05-05T15:13:32Z</time>
      </trkpt>
      <trkpt lat="44.78" lon="4.83064">
        <ele>252.48</ele>
        <time>2012-05-05T15:13:34Z</time>
      </trkpt>
      <trkpt lat="44.78" lon="4.83064">
        <ele>252.48</ele>
        <time>2012-05-05T15:13:35Z</time>
      </trkpt>
      <trkpt lat="44.78" lon="4.83064">
        <ele>250.56</ele>
        <time>2012-05-05T15:13:38Z</time>
      </trkpt>
      <trkpt lat="44.78" lon="4.83061">
        <ele>250.08</ele>
        <time>2012-05-05T15:13:49Z</time>
      </trkpt>
    </trkseg>
  </trk>
</gpx>